<?xml version="1.0" encoding="UTF-8" standalone="no" ?>
<gpx xmlns="http://www.topografix.com/GPX/1/1" xmlns:xsi="http://www.w3.org/2001/XMLSchema-instance" xsi:schemaLocation="http://www.topografix.com/GPX/1/1 http://www.topografix.com/GPX/1/1/gpx.xsd" version="1.1" creator="VisuGPX - https://www.visugpx.com">
  <metadata>
    <name>serre les moulières</name>
    <desc><![CDATA[belle rando au coeur de la serre]]></desc>
  </metadata>
  <trk>
    <name><![CDATA[ACTIVE LOG]]></name>
    <trkseg>
      <trkpt lat="47.2047" lon="5.61708">
        <ele>226.047119</ele>
        <time>2011-04-16T11:54:49Z</time>
      </trkpt>
      <trkpt lat="47.20469" lon="5.61706">
        <ele>229.411743</ele>
        <time>2011-04-16T11:54:54Z</time>
      </trkpt>
      <trkpt lat="47.20467" lon="5.617">
        <ele>234.218384</ele>
        <time>2011-04-16T11:54:59Z</time>
      </trkpt>
      <trkpt lat="47.20467" lon="5.61694">
        <ele>237.102295</ele>
        <time>2011-04-16T11:55:03Z</time>
      </trkpt>
      <trkpt lat="47.20468" lon="5.61693">
        <ele>237.582886</ele>
        <time>2011-04-16T11:55:04Z</time>
      </trkpt>
      <trkpt lat="47.20469" lon="5.6169">
        <ele>239.024902</ele>
        <time>2011-04-16T11:55:06Z</time>
      </trkpt>
      <trkpt lat="47.20472" lon="5.6168">
        <ele>242.389648</ele>
        <time>2011-04-16T11:55:13Z</time>
      </trkpt>
      <trkpt lat="47.20479" lon="5.61672">
        <ele>245.75415</ele>
        <time>2011-04-16T11:55:18Z</time>
      </trkpt>
      <trkpt lat="47.20483" lon="5.61668">
        <ele>246.715454</ele>
        <time>2011-04-16T11:55:22Z</time>
      </trkpt>
      <trkpt lat="47.20489" lon="5.61661">
        <ele>248.157593</ele>
        <time>2011-04-16T11:55:28Z</time>
      </trkpt>
      <trkpt lat="47.20498" lon="5.61647">
        <ele>251.522095</ele>
        <time>2011-04-16T11:55:40Z</time>
      </trkpt>
      <trkpt lat="47.20507" lon="5.61639">
        <ele>252.483398</ele>
        <time>2011-04-16T11:55:46Z</time>
      </trkpt>
      <trkpt lat="47.2051" lon="5.61635">
        <ele>252.483398</ele>
        <time>2011-04-16T11:55:49Z</time>
      </trkpt>
      <trkpt lat="47.20529" lon="5.61602">
        <ele>254.886597</ele>
        <time>2011-04-16T11:56:13Z</time>
      </trkpt>
      <trkpt lat="47.20546" lon="5.61585">
        <ele>256.328735</ele>
        <time>2011-04-16T11:56:31Z</time>
      </trkpt>
      <trkpt lat="47.20548" lon="5.61584">
        <ele>256.328735</ele>
        <time>2011-04-16T11:56:33Z</time>
      </trkpt>
      <trkpt lat="47.20569" lon="5.61584">
        <ele>258.731934</ele>
        <time>2011-04-16T11:56:51Z</time>
      </trkpt>
      <trkpt lat="47.20601" lon="5.61573">
        <ele>260.654541</ele>
        <time>2011-04-16T11:57:15Z</time>
      </trkpt>
      <trkpt lat="47.20621" lon="5.61573">
        <ele>262.577148</ele>
        <time>2011-04-16T11:57:31Z</time>
      </trkpt>
      <trkpt lat="47.20629" lon="5.61579">
        <ele>263.057861</ele>
        <time>2011-04-16T11:57:39Z</time>
      </trkpt>
      <trkpt lat="47.20638" lon="5.61583">
        <ele>263.538574</ele>
        <time>2011-04-16T11:57:47Z</time>
      </trkpt>
      <trkpt lat="47.20644" lon="5.61584">
        <ele>264.019287</ele>
        <time>2011-04-16T11:57:52Z</time>
      </trkpt>
      <trkpt lat="47.20667" lon="5.61591">
        <ele>266.903198</ele>
        <time>2011-04-16T11:58:09Z</time>
      </trkpt>
      <trkpt lat="47.20687" lon="5.61607">
        <ele>269.306519</ele>
        <time>2011-04-16T11:58:30Z</time>
      </trkpt>
      <trkpt lat="47.20703" lon="5.61614">
        <ele>271.229126</ele>
        <time>2011-04-16T11:58:47Z</time>
      </trkpt>
      <trkpt lat="47.20707" lon="5.61614">
        <ele>271.229126</ele>
        <time>2011-04-16T11:58:50Z</time>
      </trkpt>
      <trkpt lat="47.20727" lon="5.61608">
        <ele>273.632446</ele>
        <time>2011-04-16T11:59:10Z</time>
      </trkpt>
      <trkpt lat="47.20738" lon="5.61606">
        <ele>275.555054</ele>
        <time>2011-04-16T11:59:22Z</time>
      </trkpt>
      <trkpt lat="47.20751" lon="5.61613">
        <ele>277.477661</ele>
        <time>2011-04-16T11:59:35Z</time>
      </trkpt>
      <trkpt lat="47.20763" lon="5.61621">
        <ele>278.919678</ele>
        <time>2011-04-16T11:59:47Z</time>
      </trkpt>
      <trkpt lat="47.20764" lon="5.61624">
        <ele>279.400269</ele>
        <time>2011-04-16T11:59:50Z</time>
      </trkpt>
      <trkpt lat="47.20775" lon="5.61631">
        <ele>280.842407</ele>
        <time>2011-04-16T12:00:00Z</time>
      </trkpt>
      <trkpt lat="47.20786" lon="5.61633">
        <ele>283.245605</ele>
        <time>2011-04-16T12:00:15Z</time>
      </trkpt>
      <trkpt lat="47.20802" lon="5.61631">
        <ele>285.168213</ele>
        <time>2011-04-16T12:00:35Z</time>
      </trkpt>
      <trkpt lat="47.20817" lon="5.61617">
        <ele>287.09082</ele>
        <time>2011-04-16T12:00:48Z</time>
      </trkpt>
      <trkpt lat="47.20836" lon="5.61594">
        <ele>289.974854</ele>
        <time>2011-04-16T12:01:08Z</time>
      </trkpt>
      <trkpt lat="47.20849" lon="5.6157">
        <ele>292.378174</ele>
        <time>2011-04-16T12:01:29Z</time>
      </trkpt>
      <trkpt lat="47.20869" lon="5.61562">
        <ele>292.858765</ele>
        <time>2011-04-16T12:01:53Z</time>
      </trkpt>
      <trkpt lat="47.20872" lon="5.61541">
        <ele>289.974854</ele>
        <time>2011-04-16T12:02:14Z</time>
      </trkpt>
      <trkpt lat="47.20873" lon="5.61521">
        <ele>287.571411</ele>
        <time>2011-04-16T12:02:29Z</time>
      </trkpt>
      <trkpt lat="47.20875" lon="5.61493">
        <ele>284.206909</ele>
        <time>2011-04-16T12:02:47Z</time>
      </trkpt>
      <trkpt lat="47.20876" lon="5.61484">
        <ele>283.726196</ele>
        <time>2011-04-16T12:02:53Z</time>
      </trkpt>
      <trkpt lat="47.20871" lon="5.61467">
        <ele>281.803589</ele>
        <time>2011-04-16T12:03:04Z</time>
      </trkpt>
      <trkpt lat="47.20869" lon="5.61431">
        <ele>279.400269</ele>
        <time>2011-04-16T12:03:21Z</time>
      </trkpt>
      <trkpt lat="47.20868" lon="5.61417">
        <ele>278.438965</ele>
        <time>2011-04-16T12:03:30Z</time>
      </trkpt>
      <trkpt lat="47.20863" lon="5.61381">
        <ele>276.516357</ele>
        <time>2011-04-16T12:03:46Z</time>
      </trkpt>
      <trkpt lat="47.20861" lon="5.61371">
        <ele>276.516357</ele>
        <time>2011-04-16T12:03:52Z</time>
      </trkpt>
      <trkpt lat="47.20857" lon="5.61365">
        <ele>275.555054</ele>
        <time>2011-04-16T12:03:57Z</time>
      </trkpt>
      <trkpt lat="47.20859" lon="5.61358">
        <ele>275.074463</ele>
        <time>2011-04-16T12:04:01Z</time>
      </trkpt>
      <trkpt lat="47.20858" lon="5.61336">
        <ele>274.113037</ele>
        <time>2011-04-16T12:04:15Z</time>
      </trkpt>
      <trkpt lat="47.20856" lon="5.61324">
        <ele>273.151855</ele>
        <time>2011-04-16T12:04:22Z</time>
      </trkpt>
      <trkpt lat="47.20855" lon="5.6131">
        <ele>272.671143</ele>
        <time>2011-04-16T12:04:27Z</time>
      </trkpt>
      <trkpt lat="47.20859" lon="5.61273">
        <ele>271.229126</ele>
        <time>2011-04-16T12:04:48Z</time>
      </trkpt>
      <trkpt lat="47.20865" lon="5.61253">
        <ele>268.345093</ele>
        <time>2011-04-16T12:05:04Z</time>
      </trkpt>
      <trkpt lat="47.20889" lon="5.61241">
        <ele>264.980591</ele>
        <time>2011-04-16T12:05:21Z</time>
      </trkpt>
      <trkpt lat="47.20904" lon="5.61233">
        <ele>261.615967</ele>
        <time>2011-04-16T12:05:38Z</time>
      </trkpt>
      <trkpt lat="47.20922" lon="5.61226">
        <ele>259.212646</ele>
        <time>2011-04-16T12:05:54Z</time>
      </trkpt>
      <trkpt lat="47.20943" lon="5.61221">
        <ele>255.848022</ele>
        <time>2011-04-16T12:06:11Z</time>
      </trkpt>
      <trkpt lat="47.20958" lon="5.61212">
        <ele>254.406006</ele>
        <time>2011-04-16T12:06:26Z</time>
      </trkpt>
      <trkpt lat="47.20978" lon="5.61195">
        <ele>252.002808</ele>
        <time>2011-04-16T12:06:43Z</time>
      </trkpt>
      <trkpt lat="47.21002" lon="5.61171">
        <ele>250.0802</ele>
        <time>2011-04-16T12:07:04Z</time>
      </trkpt>
      <trkpt lat="47.21025" lon="5.61154">
        <ele>248.638184</ele>
        <time>2011-04-16T12:07:25Z</time>
      </trkpt>
      <trkpt lat="47.21047" lon="5.61131">
        <ele>248.638184</ele>
        <time>2011-04-16T12:07:46Z</time>
      </trkpt>
      <trkpt lat="47.21067" lon="5.61112">
        <ele>248.157593</ele>
        <time>2011-04-16T12:08:04Z</time>
      </trkpt>
      <trkpt lat="47.21082" lon="5.61105">
        <ele>248.157593</ele>
        <time>2011-04-16T12:08:18Z</time>
      </trkpt>
      <trkpt lat="47.21095" lon="5.61109">
        <ele>247.196045</ele>
        <time>2011-04-16T12:08:29Z</time>
      </trkpt>
      <trkpt lat="47.21132" lon="5.61107">
        <ele>244.312256</ele>
        <time>2011-04-16T12:08:52Z</time>
      </trkpt>
      <trkpt lat="47.21159" lon="5.61096">
        <ele>242.389648</ele>
        <time>2011-04-16T12:09:14Z</time>
      </trkpt>
      <trkpt lat="47.21182" lon="5.61085">
        <ele>239.024902</ele>
        <time>2011-04-16T12:09:32Z</time>
      </trkpt>
      <trkpt lat="47.21189" lon="5.61079">
        <ele>238.063599</ele>
        <time>2011-04-16T12:09:38Z</time>
      </trkpt>
      <trkpt lat="47.21203" lon="5.61067">
        <ele>236.140991</ele>
        <time>2011-04-16T12:09:51Z</time>
      </trkpt>
      <trkpt lat="47.21211" lon="5.61061">
        <ele>235.179688</ele>
        <time>2011-04-16T12:09:58Z</time>
      </trkpt>
      <trkpt lat="47.21212" lon="5.6103">
        <ele>231.334351</ele>
        <time>2011-04-16T12:10:15Z</time>
      </trkpt>
      <trkpt lat="47.21213" lon="5.60996">
        <ele>228.931152</ele>
        <time>2011-04-16T12:10:31Z</time>
      </trkpt>
      <trkpt lat="47.21213" lon="5.6099">
        <ele>228.450439</ele>
        <time>2011-04-16T12:10:34Z</time>
      </trkpt>
      <trkpt lat="47.21213" lon="5.60977">
        <ele>227.008545</ele>
        <time>2011-04-16T12:10:41Z</time>
      </trkpt>
      <trkpt lat="47.21209" lon="5.60955">
        <ele>226.047119</ele>
        <time>2011-04-16T12:10:52Z</time>
      </trkpt>
      <trkpt lat="47.21202" lon="5.60946">
        <ele>225.566528</ele>
        <time>2011-04-16T12:10:56Z</time>
      </trkpt>
      <trkpt lat="47.21202" lon="5.60936">
        <ele>225.085938</ele>
        <time>2011-04-16T12:11:01Z</time>
      </trkpt>
      <trkpt lat="47.21202" lon="5.60902">
        <ele>223.163208</ele>
        <time>2011-04-16T12:11:18Z</time>
      </trkpt>
      <trkpt lat="47.21201" lon="5.60896">
        <ele>223.163208</ele>
        <time>2011-04-16T12:11:22Z</time>
      </trkpt>
      <trkpt lat="47.21196" lon="5.60896">
        <ele>222.682495</ele>
        <time>2011-04-16T12:11:25Z</time>
      </trkpt>
      <trkpt lat="47.21194" lon="5.6089">
        <ele>221.721191</ele>
        <time>2011-04-16T12:11:29Z</time>
      </trkpt>
      <trkpt lat="47.2119" lon="5.6087">
        <ele>220.759888</ele>
        <time>2011-04-16T12:11:41Z</time>
      </trkpt>
      <trkpt lat="47.21189" lon="5.60861">
        <ele>220.279175</ele>
        <time>2011-04-16T12:11:47Z</time>
      </trkpt>
      <trkpt lat="47.2119" lon="5.60851">
        <ele>219.798584</ele>
        <time>2011-04-16T12:11:53Z</time>
      </trkpt>
      <trkpt lat="47.21191" lon="5.60847">
        <ele>219.317993</ele>
        <time>2011-04-16T12:11:56Z</time>
      </trkpt>
      <trkpt lat="47.21195" lon="5.60842">
        <ele>219.317993</ele>
        <time>2011-04-16T12:11:59Z</time>
      </trkpt>
      <trkpt lat="47.21196" lon="5.60837">
        <ele>219.317993</ele>
        <time>2011-04-16T12:12:02Z</time>
      </trkpt>
      <trkpt lat="47.21199" lon="5.60834">
        <ele>219.317993</ele>
        <time>2011-04-16T12:12:05Z</time>
      </trkpt>
      <trkpt lat="47.21204" lon="5.60827">
        <ele>219.317993</ele>
        <time>2011-04-16T12:12:11Z</time>
      </trkpt>
      <trkpt lat="47.21217" lon="5.60812">
        <ele>220.279175</ele>
        <time>2011-04-16T12:12:29Z</time>
      </trkpt>
      <trkpt lat="47.21231" lon="5.60818">
        <ele>221.721191</ele>
        <time>2011-04-16T12:12:48Z</time>
      </trkpt>
      <trkpt lat="47.2124" lon="5.60821">
        <ele>223.163208</ele>
        <time>2011-04-16T12:12:56Z</time>
      </trkpt>
      <trkpt lat="47.21259" lon="5.60812">
        <ele>226.527832</ele>
        <time>2011-04-16T12:13:17Z</time>
      </trkpt>
      <trkpt lat="47.21274" lon="5.60793">
        <ele>228.931152</ele>
        <time>2011-04-16T12:13:37Z</time>
      </trkpt>
      <trkpt lat="47.21282" lon="5.60778">
        <ele>231.814941</ele>
        <time>2011-04-16T12:13:55Z</time>
      </trkpt>
      <trkpt lat="47.2129" lon="5.60758">
        <ele>233.737671</ele>
        <time>2011-04-16T12:14:13Z</time>
      </trkpt>
      <trkpt lat="47.21295" lon="5.60726">
        <ele>236.621704</ele>
        <time>2011-04-16T12:14:34Z</time>
      </trkpt>
      <trkpt lat="47.21296" lon="5.60702">
        <ele>238.544312</ele>
        <time>2011-04-16T12:14:50Z</time>
      </trkpt>
      <trkpt lat="47.21292" lon="5.60684">
        <ele>239.986206</ele>
        <time>2011-04-16T12:15:03Z</time>
      </trkpt>
      <trkpt lat="47.21286" lon="5.60643">
        <ele>241.908936</ele>
        <time>2011-04-16T12:15:26Z</time>
      </trkpt>
      <trkpt lat="47.21277" lon="5.60633">
        <ele>243.35083</ele>
        <time>2011-04-16T12:15:37Z</time>
      </trkpt>
      <trkpt lat="47.2127" lon="5.60606">
        <ele>244.312256</ele>
        <time>2011-04-16T12:15:54Z</time>
      </trkpt>
      <trkpt lat="47.21269" lon="5.60584">
        <ele>245.75415</ele>
        <time>2011-04-16T12:16:11Z</time>
      </trkpt>
      <trkpt lat="47.21272" lon="5.60559">
        <ele>247.196045</ele>
        <time>2011-04-16T12:16:27Z</time>
      </trkpt>
      <trkpt lat="47.21287" lon="5.60546">
        <ele>247.676758</ele>
        <time>2011-04-16T12:16:39Z</time>
      </trkpt>
      <trkpt lat="47.21304" lon="5.60528">
        <ele>247.676758</ele>
        <time>2011-04-16T12:16:55Z</time>
      </trkpt>
      <trkpt lat="47.21307" lon="5.60523">
        <ele>247.676758</ele>
        <time>2011-04-16T12:17:01Z</time>
      </trkpt>
      <trkpt lat="47.21312" lon="5.60502">
        <ele>247.196045</ele>
        <time>2011-04-16T12:17:19Z</time>
      </trkpt>
      <trkpt lat="47.21313" lon="5.60486">
        <ele>247.196045</ele>
        <time>2011-04-16T12:17:37Z</time>
      </trkpt>
      <trkpt lat="47.21315" lon="5.60482">
        <ele>247.676758</ele>
        <time>2011-04-16T12:18:37Z</time>
      </trkpt>
      <trkpt lat="47.21335" lon="5.6049">
        <ele>246.715454</ele>
        <time>2011-04-16T12:20:30Z</time>
      </trkpt>
      <trkpt lat="47.21342" lon="5.60497">
        <ele>246.234863</ele>
        <time>2011-04-16T12:20:36Z</time>
      </trkpt>
      <trkpt lat="47.21353" lon="5.60508">
        <ele>246.234863</ele>
        <time>2011-04-16T12:20:48Z</time>
      </trkpt>
      <trkpt lat="47.21367" lon="5.60552">
        <ele>244.792847</ele>
        <time>2011-04-16T12:21:13Z</time>
      </trkpt>
      <trkpt lat="47.21382" lon="5.60573">
        <ele>243.35083</ele>
        <time>2011-04-16T12:21:32Z</time>
      </trkpt>
      <trkpt lat="47.21389" lon="5.60597">
        <ele>240.947632</ele>
        <time>2011-04-16T12:21:49Z</time>
      </trkpt>
      <trkpt lat="47.21407" lon="5.60611">
        <ele>240.467041</ele>
        <time>2011-04-16T12:22:07Z</time>
      </trkpt>
      <trkpt lat="47.21426" lon="5.60636">
        <ele>239.505493</ele>
        <time>2011-04-16T12:22:29Z</time>
      </trkpt>
      <trkpt lat="47.21429" lon="5.6064">
        <ele>239.505493</ele>
        <time>2011-04-16T12:22:32Z</time>
      </trkpt>
      <trkpt lat="47.21436" lon="5.60661">
        <ele>238.544312</ele>
        <time>2011-04-16T12:22:49Z</time>
      </trkpt>
      <trkpt lat="47.2145" lon="5.60686">
        <ele>238.544312</ele>
        <time>2011-04-16T12:23:08Z</time>
      </trkpt>
      <trkpt lat="47.21463" lon="5.60712">
        <ele>237.582886</ele>
        <time>2011-04-16T12:23:26Z</time>
      </trkpt>
      <trkpt lat="47.21478" lon="5.60729">
        <ele>237.102295</ele>
        <time>2011-04-16T12:23:44Z</time>
      </trkpt>
      <trkpt lat="47.21486" lon="5.60734">
        <ele>236.621704</ele>
        <time>2011-04-16T12:23:50Z</time>
      </trkpt>
      <trkpt lat="47.21506" lon="5.60757">
        <ele>235.660278</ele>
        <time>2011-04-16T12:24:13Z</time>
      </trkpt>
      <trkpt lat="47.21519" lon="5.60788">
        <ele>234.218384</ele>
        <time>2011-04-16T12:24:35Z</time>
      </trkpt>
      <trkpt lat="47.21528" lon="5.60809">
        <ele>234.218384</ele>
        <time>2011-04-16T12:24:54Z</time>
      </trkpt>
      <trkpt lat="47.21552" lon="5.60832">
        <ele>234.218384</ele>
        <time>2011-04-16T12:25:15Z</time>
      </trkpt>
      <trkpt lat="47.2156" lon="5.6086">
        <ele>234.218384</ele>
        <time>2011-04-16T12:25:34Z</time>
      </trkpt>
      <trkpt lat="47.21567" lon="5.60863">
        <ele>233.25708</ele>
        <time>2011-04-16T12:25:54Z</time>
      </trkpt>
      <trkpt lat="47.21573" lon="5.60854">
        <ele>232.295776</ele>
        <time>2011-04-16T12:26:00Z</time>
      </trkpt>
      <trkpt lat="47.21579" lon="5.60833">
        <ele>230.373047</ele>
        <time>2011-04-16T12:26:16Z</time>
      </trkpt>
      <trkpt lat="47.21588" lon="5.60815">
        <ele>228.450439</ele>
        <time>2011-04-16T12:26:28Z</time>
      </trkpt>
      <trkpt lat="47.21593" lon="5.608">
        <ele>225.085938</ele>
        <time>2011-04-16T12:26:43Z</time>
      </trkpt>
      <trkpt lat="47.21599" lon="5.60791">
        <ele>223.163208</ele>
        <time>2011-04-16T12:26:59Z</time>
      </trkpt>
      <trkpt lat="47.21602" lon="5.60783">
        <ele>222.201782</ele>
        <time>2011-04-16T12:27:20Z</time>
      </trkpt>
      <trkpt lat="47.21614" lon="5.60767">
        <ele>224.124512</ele>
        <time>2011-04-16T12:27:46Z</time>
      </trkpt>
      <trkpt lat="47.21632" lon="5.60746">
        <ele>227.008545</ele>
        <time>2011-04-16T12:28:02Z</time>
      </trkpt>
      <trkpt lat="47.21638" lon="5.60727">
        <ele>230.373047</ele>
        <time>2011-04-16T12:28:20Z</time>
      </trkpt>
      <trkpt lat="47.21644" lon="5.60707">
        <ele>232.295776</ele>
        <time>2011-04-16T12:28:38Z</time>
      </trkpt>
      <trkpt lat="47.21653" lon="5.60694">
        <ele>232.776489</ele>
        <time>2011-04-16T12:28:52Z</time>
      </trkpt>
      <trkpt lat="47.21667" lon="5.60675">
        <ele>231.814941</ele>
        <time>2011-04-16T12:29:10Z</time>
      </trkpt>
      <trkpt lat="47.21672" lon="5.60662">
        <ele>230.373047</ele>
        <time>2011-04-16T12:29:26Z</time>
      </trkpt>
      <trkpt lat="47.21681" lon="5.60642">
        <ele>228.450439</ele>
        <time>2011-04-16T12:29:48Z</time>
      </trkpt>
      <trkpt lat="47.21692" lon="5.60628">
        <ele>225.566528</ele>
        <time>2011-04-16T12:30:12Z</time>
      </trkpt>
      <trkpt lat="47.21698" lon="5.60603">
        <ele>223.643799</ele>
        <time>2011-04-16T12:30:32Z</time>
      </trkpt>
      <trkpt lat="47.21728" lon="5.60598">
        <ele>224.605225</ele>
        <time>2011-04-16T12:30:56Z</time>
      </trkpt>
      <trkpt lat="47.21728" lon="5.60583">
        <ele>226.527832</ele>
        <time>2011-04-16T12:31:16Z</time>
      </trkpt>
      <trkpt lat="47.21725" lon="5.60577">
        <ele>227.489136</ele>
        <time>2011-04-16T12:31:21Z</time>
      </trkpt>
      <trkpt lat="47.21724" lon="5.60571">
        <ele>227.969727</ele>
        <time>2011-04-16T12:31:25Z</time>
      </trkpt>
      <trkpt lat="47.21723" lon="5.60568">
        <ele>227.969727</ele>
        <time>2011-04-16T12:31:27Z</time>
      </trkpt>
      <trkpt lat="47.21722" lon="5.60564">
        <ele>227.489136</ele>
        <time>2011-04-16T12:31:31Z</time>
      </trkpt>
      <trkpt lat="47.21723" lon="5.60558">
        <ele>227.008545</ele>
        <time>2011-04-16T12:31:36Z</time>
      </trkpt>
      <trkpt lat="47.21717" lon="5.6055">
        <ele>227.489136</ele>
        <time>2011-04-16T12:31:40Z</time>
      </trkpt>
      <trkpt lat="47.21706" lon="5.60529">
        <ele>227.008545</ele>
        <time>2011-04-16T12:31:54Z</time>
      </trkpt>
      <trkpt lat="47.21694" lon="5.60517">
        <ele>227.008545</ele>
        <time>2011-04-16T12:32:09Z</time>
      </trkpt>
      <trkpt lat="47.21673" lon="5.60487">
        <ele>226.527832</ele>
        <time>2011-04-16T12:32:33Z</time>
      </trkpt>
      <trkpt lat="47.21666" lon="5.60466">
        <ele>226.527832</ele>
        <time>2011-04-16T12:32:47Z</time>
      </trkpt>
      <trkpt lat="47.21656" lon="5.60434">
        <ele>227.489136</ele>
        <time>2011-04-16T12:33:05Z</time>
      </trkpt>
      <trkpt lat="47.21651" lon="5.60422">
        <ele>227.489136</ele>
        <time>2011-04-16T12:33:11Z</time>
      </trkpt>
      <trkpt lat="47.21641" lon="5.6041">
        <ele>227.969727</ele>
        <time>2011-04-16T12:33:24Z</time>
      </trkpt>
      <trkpt lat="47.21635" lon="5.60406">
        <ele>227.969727</ele>
        <time>2011-04-16T12:33:29Z</time>
      </trkpt>
      <trkpt lat="47.21635" lon="5.604">
        <ele>228.450439</ele>
        <time>2011-04-16T12:33:52Z</time>
      </trkpt>
      <trkpt lat="47.21638" lon="5.60374">
        <ele>229.411743</ele>
        <time>2011-04-16T12:34:11Z</time>
      </trkpt>
      <trkpt lat="47.2163" lon="5.60345">
        <ele>230.373047</ele>
        <time>2011-04-16T12:34:30Z</time>
      </trkpt>
      <trkpt lat="47.21627" lon="5.60334">
        <ele>230.373047</ele>
        <time>2011-04-16T12:34:38Z</time>
      </trkpt>
      <trkpt lat="47.21622" lon="5.60311">
        <ele>231.334351</ele>
        <time>2011-04-16T12:34:56Z</time>
      </trkpt>
      <trkpt lat="47.21609" lon="5.60283">
        <ele>232.295776</ele>
        <time>2011-04-16T12:35:17Z</time>
      </trkpt>
      <trkpt lat="47.21607" lon="5.60257">
        <ele>233.737671</ele>
        <time>2011-04-16T12:35:35Z</time>
      </trkpt>
      <trkpt lat="47.21596" lon="5.60222">
        <ele>235.660278</ele>
        <time>2011-04-16T12:36:00Z</time>
      </trkpt>
      <trkpt lat="47.21583" lon="5.60192">
        <ele>235.660278</ele>
        <time>2011-04-16T12:36:22Z</time>
      </trkpt>
      <trkpt lat="47.21579" lon="5.60187">
        <ele>235.660278</ele>
        <time>2011-04-16T12:36:26Z</time>
      </trkpt>
      <trkpt lat="47.21576" lon="5.60181">
        <ele>235.660278</ele>
        <time>2011-04-16T12:36:30Z</time>
      </trkpt>
      <trkpt lat="47.2157" lon="5.60155">
        <ele>238.544312</ele>
        <time>2011-04-16T12:36:45Z</time>
      </trkpt>
      <trkpt lat="47.21569" lon="5.60152">
        <ele>238.544312</ele>
        <time>2011-04-16T12:36:48Z</time>
      </trkpt>
      <trkpt lat="47.2155" lon="5.6013">
        <ele>239.505493</ele>
        <time>2011-04-16T12:37:06Z</time>
      </trkpt>
      <trkpt lat="47.21543" lon="5.60126">
        <ele>239.505493</ele>
        <time>2011-04-16T12:37:22Z</time>
      </trkpt>
      <trkpt lat="47.2153" lon="5.60115">
        <ele>239.024902</ele>
        <time>2011-04-16T12:37:36Z</time>
      </trkpt>
      <trkpt lat="47.21516" lon="5.60083">
        <ele>239.986206</ele>
        <time>2011-04-16T12:38:00Z</time>
      </trkpt>
      <trkpt lat="47.21497" lon="5.6006">
        <ele>241.428223</ele>
        <time>2011-04-16T12:38:22Z</time>
      </trkpt>
      <trkpt lat="47.21504" lon="5.60041">
        <ele>243.831543</ele>
        <time>2011-04-16T12:38:52Z</time>
      </trkpt>
      <trkpt lat="47.21504" lon="5.60014">
        <ele>246.715454</ele>
        <time>2011-04-16T12:39:13Z</time>
      </trkpt>
      <trkpt lat="47.21514" lon="5.59997">
        <ele>249.599487</ele>
        <time>2011-04-16T12:39:32Z</time>
      </trkpt>
      <trkpt lat="47.21512" lon="5.59985">
        <ele>251.041382</ele>
        <time>2011-04-16T12:39:41Z</time>
      </trkpt>
      <trkpt lat="47.21514" lon="5.59955">
        <ele>253.444702</ele>
        <time>2011-04-16T12:40:01Z</time>
      </trkpt>
      <trkpt lat="47.21513" lon="5.5992">
        <ele>256.328735</ele>
        <time>2011-04-16T12:40:26Z</time>
      </trkpt>
      <trkpt lat="47.21529" lon="5.59904">
        <ele>259.212646</ele>
        <time>2011-04-16T12:40:49Z</time>
      </trkpt>
      <trkpt lat="47.21532" lon="5.59879">
        <ele>262.096558</ele>
        <time>2011-04-16T12:41:10Z</time>
      </trkpt>
      <trkpt lat="47.21516" lon="5.59852">
        <ele>264.019287</ele>
        <time>2011-04-16T12:41:29Z</time>
      </trkpt>
      <trkpt lat="47.21517" lon="5.5984">
        <ele>265.461304</ele>
        <time>2011-04-16T12:41:41Z</time>
      </trkpt>
      <trkpt lat="47.21511" lon="5.59824">
        <ele>265.941895</ele>
        <time>2011-04-16T12:41:57Z</time>
      </trkpt>
      <trkpt lat="47.21499" lon="5.59786">
        <ele>267.864502</ele>
        <time>2011-04-16T12:42:19Z</time>
      </trkpt>
      <trkpt lat="47.21493" lon="5.59763">
        <ele>269.306519</ele>
        <time>2011-04-16T12:42:33Z</time>
      </trkpt>
      <trkpt lat="47.21486" lon="5.59748">
        <ele>269.787109</ele>
        <time>2011-04-16T12:42:43Z</time>
      </trkpt>
      <trkpt lat="47.21475" lon="5.59726">
        <ele>270.2677</ele>
        <time>2011-04-16T12:42:58Z</time>
      </trkpt>
      <trkpt lat="47.21461" lon="5.59697">
        <ele>271.709717</ele>
        <time>2011-04-16T12:43:20Z</time>
      </trkpt>
      <trkpt lat="47.21444" lon="5.59649">
        <ele>273.632446</ele>
        <time>2011-04-16T12:43:50Z</time>
      </trkpt>
      <trkpt lat="47.21433" lon="5.5963">
        <ele>274.59375</ele>
        <time>2011-04-16T12:44:07Z</time>
      </trkpt>
      <trkpt lat="47.21411" lon="5.59587">
        <ele>274.113037</ele>
        <time>2011-04-16T12:44:34Z</time>
      </trkpt>
      <trkpt lat="47.214" lon="5.59558">
        <ele>275.074463</ele>
        <time>2011-04-16T12:44:54Z</time>
      </trkpt>
      <trkpt lat="47.21387" lon="5.59518">
        <ele>276.516357</ele>
        <time>2011-04-16T12:45:17Z</time>
      </trkpt>
      <trkpt lat="47.21385" lon="5.59497">
        <ele>276.99707</ele>
        <time>2011-04-16T12:45:29Z</time>
      </trkpt>
      <trkpt lat="47.21385" lon="5.59474">
        <ele>278.919678</ele>
        <time>2011-04-16T12:45:44Z</time>
      </trkpt>
      <trkpt lat="47.21385" lon="5.5945">
        <ele>280.842407</ele>
        <time>2011-04-16T12:46:01Z</time>
      </trkpt>
      <trkpt lat="47.21401" lon="5.59413">
        <ele>283.245605</ele>
        <time>2011-04-16T12:46:25Z</time>
      </trkpt>
      <trkpt lat="47.21404" lon="5.59387">
        <ele>284.687622</ele>
        <time>2011-04-16T12:46:42Z</time>
      </trkpt>
      <trkpt lat="47.21406" lon="5.59361">
        <ele>285.168213</ele>
        <time>2011-04-16T12:46:57Z</time>
      </trkpt>
      <trkpt lat="47.21409" lon="5.59341">
        <ele>285.168213</ele>
        <time>2011-04-16T12:47:15Z</time>
      </trkpt>
      <trkpt lat="47.21415" lon="5.59335">
        <ele>285.648804</ele>
        <time>2011-04-16T12:48:12Z</time>
      </trkpt>
      <trkpt lat="47.21415" lon="5.59331">
        <ele>285.648804</ele>
        <time>2011-04-16T12:49:01Z</time>
      </trkpt>
      <trkpt lat="47.21415" lon="5.59331">
        <ele>286.129517</ele>
        <time>2011-04-16T12:49:45Z</time>
      </trkpt>
      <trkpt lat="47.21427" lon="5.59321">
        <ele>285.648804</ele>
        <time>2011-04-16T12:51:36Z</time>
      </trkpt>
      <trkpt lat="47.21449" lon="5.59306">
        <ele>285.168213</ele>
        <time>2011-04-16T12:51:54Z</time>
      </trkpt>
      <trkpt lat="47.21486" lon="5.59296">
        <ele>283.726196</ele>
        <time>2011-04-16T12:52:21Z</time>
      </trkpt>
      <trkpt lat="47.21515" lon="5.59282">
        <ele>283.245605</ele>
        <time>2011-04-16T12:52:38Z</time>
      </trkpt>
      <trkpt lat="47.21534" lon="5.59265">
        <ele>282.284302</ele>
        <time>2011-04-16T12:52:57Z</time>
      </trkpt>
      <trkpt lat="47.21536" lon="5.59264">
        <ele>282.284302</ele>
        <time>2011-04-16T12:53:19Z</time>
      </trkpt>
      <trkpt lat="47.21552" lon="5.59252">
        <ele>280.361694</ele>
        <time>2011-04-16T12:53:36Z</time>
      </trkpt>
      <trkpt lat="47.21566" lon="5.59234">
        <ele>276.99707</ele>
        <time>2011-04-16T12:53:50Z</time>
      </trkpt>
      <trkpt lat="47.21591" lon="5.59219">
        <ele>276.99707</ele>
        <time>2011-04-16T12:54:11Z</time>
      </trkpt>
      <trkpt lat="47.2162" lon="5.59203">
        <ele>277.477661</ele>
        <time>2011-04-16T12:54:35Z</time>
      </trkpt>
      <trkpt lat="47.21645" lon="5.59193">
        <ele>279.400269</ele>
        <time>2011-04-16T12:54:52Z</time>
      </trkpt>
      <trkpt lat="47.21665" lon="5.59176">
        <ele>280.842407</ele>
        <time>2011-04-16T12:55:10Z</time>
      </trkpt>
      <trkpt lat="47.21682" lon="5.59167">
        <ele>282.765015</ele>
        <time>2011-04-16T12:55:28Z</time>
      </trkpt>
      <trkpt lat="47.21699" lon="5.59161">
        <ele>283.245605</ele>
        <time>2011-04-16T12:55:45Z</time>
      </trkpt>
      <trkpt lat="47.21713" lon="5.59158">
        <ele>284.206909</ele>
        <time>2011-04-16T12:56:03Z</time>
      </trkpt>
      <trkpt lat="47.21731" lon="5.5915">
        <ele>284.687622</ele>
        <time>2011-04-16T12:56:19Z</time>
      </trkpt>
      <trkpt lat="47.21763" lon="5.59143">
        <ele>285.648804</ele>
        <time>2011-04-16T12:56:40Z</time>
      </trkpt>
      <trkpt lat="47.2178" lon="5.59133">
        <ele>287.09082</ele>
        <time>2011-04-16T12:56:58Z</time>
      </trkpt>
      <trkpt lat="47.21809" lon="5.59124">
        <ele>288.052246</ele>
        <time>2011-04-16T12:57:19Z</time>
      </trkpt>
      <trkpt lat="47.21831" lon="5.59119">
        <ele>289.01355</ele>
        <time>2011-04-16T12:57:36Z</time>
      </trkpt>
      <trkpt lat="47.21862" lon="5.59112">
        <ele>289.974854</ele>
        <time>2011-04-16T12:58:02Z</time>
      </trkpt>
      <trkpt lat="47.21882" lon="5.59107">
        <ele>290.455566</ele>
        <time>2011-04-16T12:58:15Z</time>
      </trkpt>
      <trkpt lat="47.21904" lon="5.59097">
        <ele>291.416748</ele>
        <time>2011-04-16T12:58:34Z</time>
      </trkpt>
      <trkpt lat="47.2193" lon="5.59091">
        <ele>291.897461</ele>
        <time>2011-04-16T12:58:51Z</time>
      </trkpt>
      <trkpt lat="47.21958" lon="5.59084">
        <ele>293.339355</ele>
        <time>2011-04-16T12:59:14Z</time>
      </trkpt>
      <trkpt lat="47.21983" lon="5.59071">
        <ele>293.820068</ele>
        <time>2011-04-16T12:59:34Z</time>
      </trkpt>
      <trkpt lat="47.22" lon="5.59057">
        <ele>294.300781</ele>
        <time>2011-04-16T12:59:57Z</time>
      </trkpt>
      <trkpt lat="47.2202" lon="5.59053">
        <ele>294.781372</ele>
        <time>2011-04-16T13:00:16Z</time>
      </trkpt>
      <trkpt lat="47.22052" lon="5.59045">
        <ele>293.820068</ele>
        <time>2011-04-16T13:00:36Z</time>
      </trkpt>
      <trkpt lat="47.22069" lon="5.59039">
        <ele>291.897461</ele>
        <time>2011-04-16T13:00:54Z</time>
      </trkpt>
      <trkpt lat="47.2208" lon="5.59025">
        <ele>289.01355</ele>
        <time>2011-04-16T13:01:26Z</time>
      </trkpt>
      <trkpt lat="47.22099" lon="5.59012">
        <ele>285.648804</ele>
        <time>2011-04-16T13:01:39Z</time>
      </trkpt>
      <trkpt lat="47.22121" lon="5.58999">
        <ele>282.284302</ele>
        <time>2011-04-16T13:01:55Z</time>
      </trkpt>
      <trkpt lat="47.22146" lon="5.58991">
        <ele>280.361694</ele>
        <time>2011-04-16T13:02:14Z</time>
      </trkpt>
      <trkpt lat="47.22155" lon="5.58969">
        <ele>279.880859</ele>
        <time>2011-04-16T13:02:37Z</time>
      </trkpt>
      <trkpt lat="47.22174" lon="5.58945">
        <ele>278.919678</ele>
        <time>2011-04-16T13:02:58Z</time>
      </trkpt>
      <trkpt lat="47.22189" lon="5.58924">
        <ele>278.438965</ele>
        <time>2011-04-16T13:03:13Z</time>
      </trkpt>
      <trkpt lat="47.22206" lon="5.58891">
        <ele>276.516357</ele>
        <time>2011-04-16T13:03:37Z</time>
      </trkpt>
      <trkpt lat="47.22233" lon="5.58861">
        <ele>274.59375</ele>
        <time>2011-04-16T13:04:01Z</time>
      </trkpt>
      <trkpt lat="47.22252" lon="5.58838">
        <ele>273.632446</ele>
        <time>2011-04-16T13:04:19Z</time>
      </trkpt>
      <trkpt lat="47.22252" lon="5.5883">
        <ele>273.151855</ele>
        <time>2011-04-16T13:04:25Z</time>
      </trkpt>
      <trkpt lat="47.22256" lon="5.58822">
        <ele>272.671143</ele>
        <time>2011-04-16T13:04:29Z</time>
      </trkpt>
      <trkpt lat="47.22258" lon="5.58818">
        <ele>272.19043</ele>
        <time>2011-04-16T13:04:32Z</time>
      </trkpt>
      <trkpt lat="47.22263" lon="5.58793">
        <ele>272.19043</ele>
        <time>2011-04-16T13:04:49Z</time>
      </trkpt>
      <trkpt lat="47.22276" lon="5.58772">
        <ele>271.229126</ele>
        <time>2011-04-16T13:05:05Z</time>
      </trkpt>
      <trkpt lat="47.22277" lon="5.5874">
        <ele>271.709717</ele>
        <time>2011-04-16T13:05:19Z</time>
      </trkpt>
      <trkpt lat="47.22273" lon="5.58723">
        <ele>272.19043</ele>
        <time>2011-04-16T13:05:28Z</time>
      </trkpt>
      <trkpt lat="47.22271" lon="5.58711">
        <ele>270.2677</ele>
        <time>2011-04-16T13:05:34Z</time>
      </trkpt>
      <trkpt lat="47.22271" lon="5.58708">
        <ele>269.787109</ele>
        <time>2011-04-16T13:05:36Z</time>
      </trkpt>
      <trkpt lat="47.22266" lon="5.58688">
        <ele>268.825806</ele>
        <time>2011-04-16T13:05:47Z</time>
      </trkpt>
      <trkpt lat="47.22263" lon="5.58667">
        <ele>266.422485</ele>
        <time>2011-04-16T13:06:00Z</time>
      </trkpt>
      <trkpt lat="47.22263" lon="5.58665">
        <ele>266.422485</ele>
        <time>2011-04-16T13:06:01Z</time>
      </trkpt>
      <trkpt lat="47.22256" lon="5.58639">
        <ele>264.499878</ele>
        <time>2011-04-16T13:06:14Z</time>
      </trkpt>
      <trkpt lat="47.2225" lon="5.58628">
        <ele>263.538574</ele>
        <time>2011-04-16T13:06:20Z</time>
      </trkpt>
      <trkpt lat="47.22248" lon="5.58596">
        <ele>261.135254</ele>
        <time>2011-04-16T13:06:36Z</time>
      </trkpt>
      <trkpt lat="47.22247" lon="5.58588">
        <ele>260.654541</ele>
        <time>2011-04-16T13:06:40Z</time>
      </trkpt>
      <trkpt lat="47.22253" lon="5.58575">
        <ele>258.731934</ele>
        <time>2011-04-16T13:06:53Z</time>
      </trkpt>
      <trkpt lat="47.22255" lon="5.5856">
        <ele>257.770752</ele>
        <time>2011-04-16T13:07:02Z</time>
      </trkpt>
      <trkpt lat="47.22258" lon="5.58554">
        <ele>257.290039</ele>
        <time>2011-04-16T13:07:06Z</time>
      </trkpt>
      <trkpt lat="47.22261" lon="5.58541">
        <ele>256.809326</ele>
        <time>2011-04-16T13:07:14Z</time>
      </trkpt>
      <trkpt lat="47.22266" lon="5.58523">
        <ele>257.290039</ele>
        <time>2011-04-16T13:07:26Z</time>
      </trkpt>
      <trkpt lat="47.22268" lon="5.5852">
        <ele>256.809326</ele>
        <time>2011-04-16T13:07:28Z</time>
      </trkpt>
      <trkpt lat="47.22269" lon="5.58514">
        <ele>256.809326</ele>
        <time>2011-04-16T13:07:32Z</time>
      </trkpt>
      <trkpt lat="47.22286" lon="5.58483">
        <ele>255.848022</ele>
        <time>2011-04-16T13:07:53Z</time>
      </trkpt>
      <trkpt lat="47.22295" lon="5.58467">
        <ele>255.36731</ele>
        <time>2011-04-16T13:08:06Z</time>
      </trkpt>
      <trkpt lat="47.22302" lon="5.58451">
        <ele>254.406006</ele>
        <time>2011-04-16T13:08:19Z</time>
      </trkpt>
      <trkpt lat="47.22321" lon="5.58428">
        <ele>252.483398</ele>
        <time>2011-04-16T13:08:37Z</time>
      </trkpt>
      <trkpt lat="47.2233" lon="5.58421">
        <ele>252.002808</ele>
        <time>2011-04-16T13:08:44Z</time>
      </trkpt>
      <trkpt lat="47.22339" lon="5.58404">
        <ele>251.041382</ele>
        <time>2011-04-16T13:08:58Z</time>
      </trkpt>
      <trkpt lat="47.22349" lon="5.58391">
        <ele>250.0802</ele>
        <time>2011-04-16T13:09:11Z</time>
      </trkpt>
      <trkpt lat="47.22365" lon="5.58385">
        <ele>249.599487</ele>
        <time>2011-04-16T13:09:27Z</time>
      </trkpt>
      <trkpt lat="47.22379" lon="5.58364">
        <ele>247.676758</ele>
        <time>2011-04-16T13:09:48Z</time>
      </trkpt>
      <trkpt lat="47.22391" lon="5.58342">
        <ele>245.273438</ele>
        <time>2011-04-16T13:10:07Z</time>
      </trkpt>
      <trkpt lat="47.22394" lon="5.58336">
        <ele>245.75415</ele>
        <time>2011-04-16T13:10:11Z</time>
      </trkpt>
      <trkpt lat="47.22398" lon="5.58324">
        <ele>244.792847</ele>
        <time>2011-04-16T13:10:19Z</time>
      </trkpt>
      <trkpt lat="47.22408" lon="5.58308">
        <ele>242.389648</ele>
        <time>2011-04-16T13:10:34Z</time>
      </trkpt>
      <trkpt lat="47.22436" lon="5.58288">
        <ele>240.947632</ele>
        <time>2011-04-16T13:10:54Z</time>
      </trkpt>
      <trkpt lat="47.22446" lon="5.58269">
        <ele>238.544312</ele>
        <time>2011-04-16T13:11:08Z</time>
      </trkpt>
      <trkpt lat="47.22462" lon="5.58233">
        <ele>236.621704</ele>
        <time>2011-04-16T13:11:31Z</time>
      </trkpt>
      <trkpt lat="47.22479" lon="5.58185">
        <ele>234.699097</ele>
        <time>2011-04-16T13:11:58Z</time>
      </trkpt>
      <trkpt lat="47.2248" lon="5.58183">
        <ele>234.699097</ele>
        <time>2011-04-16T13:11:59Z</time>
      </trkpt>
      <trkpt lat="47.22486" lon="5.58168">
        <ele>234.218384</ele>
        <time>2011-04-16T13:12:10Z</time>
      </trkpt>
      <trkpt lat="47.2249" lon="5.58155">
        <ele>233.737671</ele>
        <time>2011-04-16T13:12:17Z</time>
      </trkpt>
      <trkpt lat="47.22504" lon="5.5811">
        <ele>232.295776</ele>
        <time>2011-04-16T13:12:43Z</time>
      </trkpt>
      <trkpt lat="47.22514" lon="5.58062">
        <ele>229.892334</ele>
        <time>2011-04-16T13:13:10Z</time>
      </trkpt>
      <trkpt lat="47.22527" lon="5.58014">
        <ele>227.008545</ele>
        <time>2011-04-16T13:13:37Z</time>
      </trkpt>
      <trkpt lat="47.22536" lon="5.57978">
        <ele>225.085938</ele>
        <time>2011-04-16T13:13:57Z</time>
      </trkpt>
      <trkpt lat="47.2254" lon="5.57942">
        <ele>222.682495</ele>
        <time>2011-04-16T13:14:15Z</time>
      </trkpt>
      <trkpt lat="47.22544" lon="5.57901">
        <ele>220.759888</ele>
        <time>2011-04-16T13:14:37Z</time>
      </trkpt>
      <trkpt lat="47.22552" lon="5.5786">
        <ele>218.356567</ele>
        <time>2011-04-16T13:14:59Z</time>
      </trkpt>
      <trkpt lat="47.22563" lon="5.57831">
        <ele>215.953247</ele>
        <time>2011-04-16T13:15:19Z</time>
      </trkpt>
      <trkpt lat="47.22571" lon="5.57815">
        <ele>214.991943</ele>
        <time>2011-04-16T13:15:30Z</time>
      </trkpt>
      <trkpt lat="47.22579" lon="5.578">
        <ele>214.03064</ele>
        <time>2011-04-16T13:15:40Z</time>
      </trkpt>
      <trkpt lat="47.22581" lon="5.57795">
        <ele>213.550049</ele>
        <time>2011-04-16T13:15:43Z</time>
      </trkpt>
      <trkpt lat="47.22592" lon="5.57768">
        <ele>211.627441</ele>
        <time>2011-04-16T13:16:01Z</time>
      </trkpt>
      <trkpt lat="47.22594" lon="5.57761">
        <ele>210.666016</ele>
        <time>2011-04-16T13:16:06Z</time>
      </trkpt>
      <trkpt lat="47.22597" lon="5.5773">
        <ele>209.224121</ele>
        <time>2011-04-16T13:16:21Z</time>
      </trkpt>
      <trkpt lat="47.226" lon="5.57699">
        <ele>207.301392</ele>
        <time>2011-04-16T13:16:38Z</time>
      </trkpt>
      <trkpt lat="47.22598" lon="5.57684">
        <ele>206.820679</ele>
        <time>2011-04-16T13:16:54Z</time>
      </trkpt>
      <trkpt lat="47.22599" lon="5.57683">
        <ele>206.340088</ele>
        <time>2011-04-16T13:17:01Z</time>
      </trkpt>
      <trkpt lat="47.22608" lon="5.57665">
        <ele>204.898071</ele>
        <time>2011-04-16T13:17:13Z</time>
      </trkpt>
      <trkpt lat="47.22616" lon="5.57645">
        <ele>204.41748</ele>
        <time>2011-04-16T13:17:20Z</time>
      </trkpt>
      <trkpt lat="47.22632" lon="5.57635">
        <ele>202.975464</ele>
        <time>2011-04-16T13:17:36Z</time>
      </trkpt>
      <trkpt lat="47.22651" lon="5.57631">
        <ele>201.533569</ele>
        <time>2011-04-16T13:17:55Z</time>
      </trkpt>
      <trkpt lat="47.22668" lon="5.57626">
        <ele>201.052856</ele>
        <time>2011-04-16T13:18:08Z</time>
      </trkpt>
      <trkpt lat="47.22686" lon="5.57622">
        <ele>200.572266</ele>
        <time>2011-04-16T13:18:23Z</time>
      </trkpt>
      <trkpt lat="47.22704" lon="5.57612">
        <ele>200.091675</ele>
        <time>2011-04-16T13:18:41Z</time>
      </trkpt>
      <trkpt lat="47.22713" lon="5.57603">
        <ele>200.572266</ele>
        <time>2011-04-16T13:18:50Z</time>
      </trkpt>
      <trkpt lat="47.22721" lon="5.57586">
        <ele>200.091675</ele>
        <time>2011-04-16T13:19:07Z</time>
      </trkpt>
      <trkpt lat="47.22723" lon="5.57584">
        <ele>200.091675</ele>
        <time>2011-04-16T13:19:29Z</time>
      </trkpt>
      <trkpt lat="47.22721" lon="5.57583">
        <ele>199.61084</ele>
        <time>2011-04-16T13:20:51Z</time>
      </trkpt>
      <trkpt lat="47.22719" lon="5.57584">
        <ele>199.130127</ele>
        <time>2011-04-16T13:21:51Z</time>
      </trkpt>
      <trkpt lat="47.2272" lon="5.57586">
        <ele>199.130127</ele>
        <time>2011-04-16T13:25:38Z</time>
      </trkpt>
      <trkpt lat="47.2272" lon="5.57586">
        <ele>198.168945</ele>
        <time>2011-04-16T13:25:42Z</time>
      </trkpt>
      <trkpt lat="47.22716" lon="5.57595">
        <ele>198.649536</ele>
        <time>2011-04-16T13:26:42Z</time>
      </trkpt>
      <trkpt lat="47.22699" lon="5.57611">
        <ele>198.649536</ele>
        <time>2011-04-16T13:27:00Z</time>
      </trkpt>
      <trkpt lat="47.22673" lon="5.57623">
        <ele>199.130127</ele>
        <time>2011-04-16T13:27:21Z</time>
      </trkpt>
      <trkpt lat="47.22649" lon="5.57628">
        <ele>199.61084</ele>
        <time>2011-04-16T13:27:40Z</time>
      </trkpt>
      <trkpt lat="47.22627" lon="5.57632">
        <ele>201.052856</ele>
        <time>2011-04-16T13:28:00Z</time>
      </trkpt>
      <trkpt lat="47.22594" lon="5.57643">
        <ele>203.456177</ele>
        <time>2011-04-16T13:28:28Z</time>
      </trkpt>
      <trkpt lat="47.22559" lon="5.57651">
        <ele>204.41748</ele>
        <time>2011-04-16T13:28:58Z</time>
      </trkpt>
      <trkpt lat="47.22535" lon="5.57661">
        <ele>205.378784</ele>
        <time>2011-04-16T13:29:21Z</time>
      </trkpt>
      <trkpt lat="47.22508" lon="5.57677">
        <ele>206.820679</ele>
        <time>2011-04-16T13:29:44Z</time>
      </trkpt>
      <trkpt lat="47.22478" lon="5.57694">
        <ele>208.743408</ele>
        <time>2011-04-16T13:30:10Z</time>
      </trkpt>
      <trkpt lat="47.22451" lon="5.57712">
        <ele>208.743408</ele>
        <time>2011-04-16T13:30:33Z</time>
      </trkpt>
      <trkpt lat="47.2242" lon="5.57724">
        <ele>209.704834</ele>
        <time>2011-04-16T13:30:58Z</time>
      </trkpt>
      <trkpt lat="47.22383" lon="5.57745">
        <ele>210.185425</ele>
        <time>2011-04-16T13:31:28Z</time>
      </trkpt>
      <trkpt lat="47.2236" lon="5.57763">
        <ele>210.666016</ele>
        <time>2011-04-16T13:31:48Z</time>
      </trkpt>
      <trkpt lat="47.22324" lon="5.57792">
        <ele>211.146729</ele>
        <time>2011-04-16T13:32:18Z</time>
      </trkpt>
      <trkpt lat="47.22291" lon="5.57817">
        <ele>211.146729</ele>
        <time>2011-04-16T13:32:48Z</time>
      </trkpt>
      <trkpt lat="47.22265" lon="5.57833">
        <ele>210.185425</ele>
        <time>2011-04-16T13:33:12Z</time>
      </trkpt>
      <trkpt lat="47.22249" lon="5.5784">
        <ele>209.704834</ele>
        <time>2011-04-16T13:33:25Z</time>
      </trkpt>
      <trkpt lat="47.22239" lon="5.57846">
        <ele>208.743408</ele>
        <time>2011-04-16T13:33:33Z</time>
      </trkpt>
      <trkpt lat="47.2223" lon="5.57851">
        <ele>207.782104</ele>
        <time>2011-04-16T13:33:40Z</time>
      </trkpt>
      <trkpt lat="47.22224" lon="5.57854">
        <ele>207.782104</ele>
        <time>2011-04-16T13:33:44Z</time>
      </trkpt>
      <trkpt lat="47.22217" lon="5.57862">
        <ele>206.820679</ele>
        <time>2011-04-16T13:33:52Z</time>
      </trkpt>
      <trkpt lat="47.22211" lon="5.57867">
        <ele>206.340088</ele>
        <time>2011-04-16T13:33:57Z</time>
      </trkpt>
      <trkpt lat="47.22206" lon="5.57871">
        <ele>206.340088</ele>
        <time>2011-04-16T13:34:02Z</time>
      </trkpt>
      <trkpt lat="47.22189" lon="5.57874">
        <ele>205.859497</ele>
        <time>2011-04-16T13:34:15Z</time>
      </trkpt>
      <trkpt lat="47.22186" lon="5.57875">
        <ele>205.378784</ele>
        <time>2011-04-16T13:34:18Z</time>
      </trkpt>
      <trkpt lat="47.22182" lon="5.57878">
        <ele>205.378784</ele>
        <time>2011-04-16T13:34:22Z</time>
      </trkpt>
      <trkpt lat="47.22155" lon="5.57902">
        <ele>205.859497</ele>
        <time>2011-04-16T13:34:44Z</time>
      </trkpt>
      <trkpt lat="47.22138" lon="5.57907">
        <ele>205.859497</ele>
        <time>2011-04-16T13:34:59Z</time>
      </trkpt>
      <trkpt lat="47.22133" lon="5.57907">
        <ele>206.340088</ele>
        <time>2011-04-16T13:35:02Z</time>
      </trkpt>
      <trkpt lat="47.22129" lon="5.57904">
        <ele>206.340088</ele>
        <time>2011-04-16T13:35:04Z</time>
      </trkpt>
      <trkpt lat="47.22116" lon="5.57903">
        <ele>205.859497</ele>
        <time>2011-04-16T13:35:11Z</time>
      </trkpt>
      <trkpt lat="47.22103" lon="5.57915">
        <ele>206.820679</ele>
        <time>2011-04-16T13:35:26Z</time>
      </trkpt>
      <trkpt lat="47.22094" lon="5.57922">
        <ele>206.340088</ele>
        <time>2011-04-16T13:35:35Z</time>
      </trkpt>
      <trkpt lat="47.2207" lon="5.57947">
        <ele>206.340088</ele>
        <time>2011-04-16T13:35:57Z</time>
      </trkpt>
      <trkpt lat="47.22052" lon="5.57949">
        <ele>207.301392</ele>
        <time>2011-04-16T13:36:12Z</time>
      </trkpt>
      <trkpt lat="47.22031" lon="5.57949">
        <ele>209.224121</ele>
        <time>2011-04-16T13:36:29Z</time>
      </trkpt>
      <trkpt lat="47.2201" lon="5.57954">
        <ele>210.185425</ele>
        <time>2011-04-16T13:36:45Z</time>
      </trkpt>
      <trkpt lat="47.21989" lon="5.57962">
        <ele>209.704834</ele>
        <time>2011-04-16T13:37:00Z</time>
      </trkpt>
      <trkpt lat="47.21956" lon="5.57972">
        <ele>210.666016</ele>
        <time>2011-04-16T13:37:27Z</time>
      </trkpt>
      <trkpt lat="47.21932" lon="5.57975">
        <ele>210.666016</ele>
        <time>2011-04-16T13:37:45Z</time>
      </trkpt>
      <trkpt lat="47.21924" lon="5.57975">
        <ele>210.666016</ele>
        <time>2011-04-16T13:37:49Z</time>
      </trkpt>
      <trkpt lat="47.21901" lon="5.57984">
        <ele>210.666016</ele>
        <time>2011-04-16T13:38:09Z</time>
      </trkpt>
      <trkpt lat="47.21889" lon="5.57981">
        <ele>211.146729</ele>
        <time>2011-04-16T13:38:27Z</time>
      </trkpt>
      <trkpt lat="47.21887" lon="5.5798">
        <ele>210.666016</ele>
        <time>2011-04-16T13:38:28Z</time>
      </trkpt>
      <trkpt lat="47.21861" lon="5.57984">
        <ele>212.588623</ele>
        <time>2011-04-16T13:38:50Z</time>
      </trkpt>
      <trkpt lat="47.21859" lon="5.57985">
        <ele>212.588623</ele>
        <time>2011-04-16T13:38:52Z</time>
      </trkpt>
      <trkpt lat="47.21851" lon="5.57985">
        <ele>213.069336</ele>
        <time>2011-04-16T13:38:58Z</time>
      </trkpt>
      <trkpt lat="47.21849" lon="5.57988">
        <ele>213.069336</ele>
        <time>2011-04-16T13:39:00Z</time>
      </trkpt>
      <trkpt lat="47.21842" lon="5.57994">
        <ele>213.069336</ele>
        <time>2011-04-16T13:39:07Z</time>
      </trkpt>
      <trkpt lat="47.21827" lon="5.57992">
        <ele>213.550049</ele>
        <time>2011-04-16T13:39:17Z</time>
      </trkpt>
      <trkpt lat="47.21824" lon="5.57994">
        <ele>213.550049</ele>
        <time>2011-04-16T13:39:20Z</time>
      </trkpt>
      <trkpt lat="47.21806" lon="5.57996">
        <ele>214.51123</ele>
        <time>2011-04-16T13:39:40Z</time>
      </trkpt>
      <trkpt lat="47.21805" lon="5.57999">
        <ele>214.991943</ele>
        <time>2011-04-16T13:39:43Z</time>
      </trkpt>
      <trkpt lat="47.21802" lon="5.58002">
        <ele>214.991943</ele>
        <time>2011-04-16T13:39:47Z</time>
      </trkpt>
      <trkpt lat="47.21786" lon="5.58004">
        <ele>216.43396</ele>
        <time>2011-04-16T13:40:04Z</time>
      </trkpt>
      <trkpt lat="47.21781" lon="5.58008">
        <ele>215.953247</ele>
        <time>2011-04-16T13:40:09Z</time>
      </trkpt>
      <trkpt lat="47.21777" lon="5.58007">
        <ele>216.43396</ele>
        <time>2011-04-16T13:40:12Z</time>
      </trkpt>
      <trkpt lat="47.21773" lon="5.58012">
        <ele>216.914673</ele>
        <time>2011-04-16T13:40:18Z</time>
      </trkpt>
      <trkpt lat="47.21769" lon="5.58016">
        <ele>217.395386</ele>
        <time>2011-04-16T13:40:23Z</time>
      </trkpt>
      <trkpt lat="47.21757" lon="5.5802">
        <ele>217.875977</ele>
        <time>2011-04-16T13:40:34Z</time>
      </trkpt>
      <trkpt lat="47.21748" lon="5.58028">
        <ele>218.356567</ele>
        <time>2011-04-16T13:40:43Z</time>
      </trkpt>
      <trkpt lat="47.21743" lon="5.5803">
        <ele>218.83728</ele>
        <time>2011-04-16T13:40:47Z</time>
      </trkpt>
      <trkpt lat="47.21736" lon="5.58033">
        <ele>219.798584</ele>
        <time>2011-04-16T13:40:55Z</time>
      </trkpt>
      <trkpt lat="47.21729" lon="5.58038">
        <ele>220.279175</ele>
        <time>2011-04-16T13:41:02Z</time>
      </trkpt>
      <trkpt lat="47.21726" lon="5.58038">
        <ele>220.279175</ele>
        <time>2011-04-16T13:41:04Z</time>
      </trkpt>
      <trkpt lat="47.21702" lon="5.58029">
        <ele>222.201782</ele>
        <time>2011-04-16T13:41:20Z</time>
      </trkpt>
      <trkpt lat="47.21683" lon="5.58054">
        <ele>224.605225</ele>
        <time>2011-04-16T13:41:41Z</time>
      </trkpt>
      <trkpt lat="47.21644" lon="5.58058">
        <ele>226.527832</ele>
        <time>2011-04-16T13:42:07Z</time>
      </trkpt>
      <trkpt lat="47.2162" lon="5.58064">
        <ele>228.450439</ele>
        <time>2011-04-16T13:42:24Z</time>
      </trkpt>
      <trkpt lat="47.21595" lon="5.58075">
        <ele>230.373047</ele>
        <time>2011-04-16T13:42:45Z</time>
      </trkpt>
      <trkpt lat="47.21565" lon="5.58095">
        <ele>233.737671</ele>
        <time>2011-04-16T13:43:10Z</time>
      </trkpt>
      <trkpt lat="47.21541" lon="5.58111">
        <ele>235.660278</ele>
        <time>2011-04-16T13:43:37Z</time>
      </trkpt>
      <trkpt lat="47.21535" lon="5.58117">
        <ele>237.102295</ele>
        <time>2011-04-16T13:43:53Z</time>
      </trkpt>
      <trkpt lat="47.21516" lon="5.58128">
        <ele>240.467041</ele>
        <time>2011-04-16T13:44:26Z</time>
      </trkpt>
      <trkpt lat="47.21493" lon="5.58105">
        <ele>242.389648</ele>
        <time>2011-04-16T13:44:49Z</time>
      </trkpt>
      <trkpt lat="47.21479" lon="5.58088">
        <ele>245.273438</ele>
        <time>2011-04-16T13:45:06Z</time>
      </trkpt>
      <trkpt lat="47.2147" lon="5.58095">
        <ele>246.234863</ele>
        <time>2011-04-16T13:45:14Z</time>
      </trkpt>
      <trkpt lat="47.21463" lon="5.58097">
        <ele>247.196045</ele>
        <time>2011-04-16T13:45:20Z</time>
      </trkpt>
      <trkpt lat="47.21439" lon="5.58111">
        <ele>249.599487</ele>
        <time>2011-04-16T13:45:49Z</time>
      </trkpt>
      <trkpt lat="47.21429" lon="5.58114">
        <ele>252.483398</ele>
        <time>2011-04-16T13:46:20Z</time>
      </trkpt>
      <trkpt lat="47.2142" lon="5.58114">
        <ele>254.886597</ele>
        <time>2011-04-16T13:46:40Z</time>
      </trkpt>
      <trkpt lat="47.21413" lon="5.58113">
        <ele>257.770752</ele>
        <time>2011-04-16T13:47:01Z</time>
      </trkpt>
      <trkpt lat="47.21404" lon="5.58116">
        <ele>259.693359</ele>
        <time>2011-04-16T13:47:22Z</time>
      </trkpt>
      <trkpt lat="47.21395" lon="5.58114">
        <ele>261.135254</ele>
        <time>2011-04-16T13:47:38Z</time>
      </trkpt>
      <trkpt lat="47.21384" lon="5.58124">
        <ele>263.538574</ele>
        <time>2011-04-16T13:47:58Z</time>
      </trkpt>
      <trkpt lat="47.21373" lon="5.5814">
        <ele>265.941895</ele>
        <time>2011-04-16T13:48:18Z</time>
      </trkpt>
      <trkpt lat="47.21363" lon="5.58147">
        <ele>267.383911</ele>
        <time>2011-04-16T13:48:35Z</time>
      </trkpt>
      <trkpt lat="47.21349" lon="5.58157">
        <ele>269.787109</ele>
        <time>2011-04-16T13:48:58Z</time>
      </trkpt>
      <trkpt lat="47.21338" lon="5.58165">
        <ele>271.709717</ele>
        <time>2011-04-16T13:49:21Z</time>
      </trkpt>
      <trkpt lat="47.21334" lon="5.58174">
        <ele>273.151855</ele>
        <time>2011-04-16T13:49:38Z</time>
      </trkpt>
      <trkpt lat="47.21323" lon="5.58176">
        <ele>275.555054</ele>
        <time>2011-04-16T13:49:59Z</time>
      </trkpt>
      <trkpt lat="47.2131" lon="5.58184">
        <ele>276.99707</ele>
        <time>2011-04-16T13:50:19Z</time>
      </trkpt>
      <trkpt lat="47.21304" lon="5.58208">
        <ele>277.958252</ele>
        <time>2011-04-16T13:50:39Z</time>
      </trkpt>
      <trkpt lat="47.21291" lon="5.58223">
        <ele>279.880859</ele>
        <time>2011-04-16T13:51:03Z</time>
      </trkpt>
      <trkpt lat="47.21287" lon="5.58231">
        <ele>282.284302</ele>
        <time>2011-04-16T13:51:42Z</time>
      </trkpt>
      <trkpt lat="47.2128" lon="5.58244">
        <ele>284.687622</ele>
        <time>2011-04-16T13:52:17Z</time>
      </trkpt>
      <trkpt lat="47.21267" lon="5.58254">
        <ele>287.09082</ele>
        <time>2011-04-16T13:52:35Z</time>
      </trkpt>
      <trkpt lat="47.21256" lon="5.5826">
        <ele>288.532959</ele>
        <time>2011-04-16T13:52:52Z</time>
      </trkpt>
      <trkpt lat="47.21252" lon="5.58268">
        <ele>291.416748</ele>
        <time>2011-04-16T13:53:12Z</time>
      </trkpt>
      <trkpt lat="47.21244" lon="5.58282">
        <ele>293.339355</ele>
        <time>2011-04-16T13:53:25Z</time>
      </trkpt>
      <trkpt lat="47.21235" lon="5.583">
        <ele>296.223511</ele>
        <time>2011-04-16T13:53:44Z</time>
      </trkpt>
      <trkpt lat="47.21227" lon="5.58317">
        <ele>297.665405</ele>
        <time>2011-04-16T13:54:01Z</time>
      </trkpt>
      <trkpt lat="47.21209" lon="5.58328">
        <ele>299.588013</ele>
        <time>2011-04-16T13:54:23Z</time>
      </trkpt>
      <trkpt lat="47.21199" lon="5.58326">
        <ele>299.588013</ele>
        <time>2011-04-16T13:54:41Z</time>
      </trkpt>
      <trkpt lat="47.21182" lon="5.58369">
        <ele>302.471924</ele>
        <time>2011-04-16T13:55:02Z</time>
      </trkpt>
      <trkpt lat="47.2117" lon="5.58381">
        <ele>305.355957</ele>
        <time>2011-04-16T13:55:20Z</time>
      </trkpt>
      <trkpt lat="47.21158" lon="5.58387">
        <ele>308.720459</ele>
        <time>2011-04-16T13:55:33Z</time>
      </trkpt>
      <trkpt lat="47.2115" lon="5.58395">
        <ele>311.604492</ele>
        <time>2011-04-16T13:55:45Z</time>
      </trkpt>
      <trkpt lat="47.21133" lon="5.58388">
        <ele>314.007812</ele>
        <time>2011-04-16T13:55:58Z</time>
      </trkpt>
      <trkpt lat="47.21126" lon="5.58396">
        <ele>316.891724</ele>
        <time>2011-04-16T13:56:13Z</time>
      </trkpt>
      <trkpt lat="47.21118" lon="5.58433">
        <ele>320.256348</ele>
        <time>2011-04-16T13:56:32Z</time>
      </trkpt>
      <trkpt lat="47.2111" lon="5.58446">
        <ele>322.659668</ele>
        <time>2011-04-16T13:56:48Z</time>
      </trkpt>
      <trkpt lat="47.21103" lon="5.58463">
        <ele>326.02417</ele>
        <time>2011-04-16T13:57:04Z</time>
      </trkpt>
      <trkpt lat="47.21097" lon="5.5846">
        <ele>328.908325</ele>
        <time>2011-04-16T13:57:19Z</time>
      </trkpt>
      <trkpt lat="47.21091" lon="5.58461">
        <ele>332.272827</ele>
        <time>2011-04-16T13:57:33Z</time>
      </trkpt>
      <trkpt lat="47.21083" lon="5.58467">
        <ele>335.156738</ele>
        <time>2011-04-16T13:57:49Z</time>
      </trkpt>
      <trkpt lat="47.21075" lon="5.58467">
        <ele>338.521484</ele>
        <time>2011-04-16T13:58:06Z</time>
      </trkpt>
      <trkpt lat="47.21073" lon="5.58472">
        <ele>341.405273</ele>
        <time>2011-04-16T13:58:24Z</time>
      </trkpt>
      <trkpt lat="47.21068" lon="5.58474">
        <ele>344.77002</ele>
        <time>2011-04-16T13:58:41Z</time>
      </trkpt>
      <trkpt lat="47.2106" lon="5.58488">
        <ele>347.653931</ele>
        <time>2011-04-16T13:59:01Z</time>
      </trkpt>
      <trkpt lat="47.21048" lon="5.58501">
        <ele>350.537842</ele>
        <time>2011-04-16T13:59:20Z</time>
      </trkpt>
      <trkpt lat="47.21042" lon="5.58506">
        <ele>353.902588</ele>
        <time>2011-04-16T13:59:40Z</time>
      </trkpt>
      <trkpt lat="47.21032" lon="5.58518">
        <ele>356.786377</ele>
        <time>2011-04-16T14:00:03Z</time>
      </trkpt>
      <trkpt lat="47.21024" lon="5.58523">
        <ele>358.708984</ele>
        <time>2011-04-16T14:00:23Z</time>
      </trkpt>
      <trkpt lat="47.20967" lon="5.58736">
        <ele>361.112427</ele>
        <time>2011-04-16T14:01:10Z</time>
      </trkpt>
      <trkpt lat="47.20959" lon="5.58751">
        <ele>362.07373</ele>
        <time>2011-04-16T14:02:08Z</time>
      </trkpt>
      <trkpt lat="47.20952" lon="5.58783">
        <ele>363.996338</ele>
        <time>2011-04-16T14:02:39Z</time>
      </trkpt>
      <trkpt lat="47.20945" lon="5.58838">
        <ele>365.918945</ele>
        <time>2011-04-16T14:03:08Z</time>
      </trkpt>
      <trkpt lat="47.20939" lon="5.58861">
        <ele>368.322266</ele>
        <time>2011-04-16T14:03:26Z</time>
      </trkpt>
      <trkpt lat="47.20928" lon="5.58892">
        <ele>371.68689</ele>
        <time>2011-04-16T14:03:48Z</time>
      </trkpt>
      <trkpt lat="47.20919" lon="5.5892">
        <ele>374.090088</ele>
        <time>2011-04-16T14:04:13Z</time>
      </trkpt>
      <trkpt lat="47.20907" lon="5.58958">
        <ele>375.532104</ele>
        <time>2011-04-16T14:04:42Z</time>
      </trkpt>
      <trkpt lat="47.20893" lon="5.58979">
        <ele>375.532104</ele>
        <time>2011-04-16T14:05:04Z</time>
      </trkpt>
      <trkpt lat="47.20886" lon="5.58982">
        <ele>375.051514</ele>
        <time>2011-04-16T14:05:27Z</time>
      </trkpt>
      <trkpt lat="47.20888" lon="5.5898">
        <ele>374.090088</ele>
        <time>2011-04-16T14:06:01Z</time>
      </trkpt>
      <trkpt lat="47.20889" lon="5.58979">
        <ele>370.725586</ele>
        <time>2011-04-16T14:07:09Z</time>
      </trkpt>
      <trkpt lat="47.20889" lon="5.5898">
        <ele>367.841553</ele>
        <time>2011-04-16T14:08:21Z</time>
      </trkpt>
      <trkpt lat="47.20888" lon="5.5898">
        <ele>364.957642</ele>
        <time>2011-04-16T14:09:36Z</time>
      </trkpt>
      <trkpt lat="47.20889" lon="5.58981">
        <ele>361.59314</ele>
        <time>2011-04-16T14:11:07Z</time>
      </trkpt>
      <trkpt lat="47.20889" lon="5.58982">
        <ele>358.708984</ele>
        <time>2011-04-16T14:12:30Z</time>
      </trkpt>
      <trkpt lat="47.20888" lon="5.58983">
        <ele>355.344482</ele>
        <time>2011-04-16T14:14:09Z</time>
      </trkpt>
      <trkpt lat="47.20875" lon="5.58971">
        <ele>353.421875</ele>
        <time>2011-04-16T14:15:35Z</time>
      </trkpt>
      <trkpt lat="47.20859" lon="5.58963">
        <ele>353.421875</ele>
        <time>2011-04-16T14:15:52Z</time>
      </trkpt>
      <trkpt lat="47.20841" lon="5.5895">
        <ele>352.941162</ele>
        <time>2011-04-16T14:16:11Z</time>
      </trkpt>
      <trkpt lat="47.20821" lon="5.58937">
        <ele>352.941162</ele>
        <time>2011-04-16T14:16:31Z</time>
      </trkpt>
      <trkpt lat="47.20798" lon="5.58929">
        <ele>353.421875</ele>
        <time>2011-04-16T14:16:52Z</time>
      </trkpt>
      <trkpt lat="47.20778" lon="5.58915">
        <ele>353.902588</ele>
        <time>2011-04-16T14:17:12Z</time>
      </trkpt>
      <trkpt lat="47.20755" lon="5.58905">
        <ele>355.344482</ele>
        <time>2011-04-16T14:17:36Z</time>
      </trkpt>
      <trkpt lat="47.20727" lon="5.58879">
        <ele>357.26709</ele>
        <time>2011-04-16T14:18:01Z</time>
      </trkpt>
      <trkpt lat="47.20712" lon="5.58861">
        <ele>358.708984</ele>
        <time>2011-04-16T14:18:19Z</time>
      </trkpt>
      <trkpt lat="47.20696" lon="5.58851">
        <ele>360.151123</ele>
        <time>2011-04-16T14:18:36Z</time>
      </trkpt>
      <trkpt lat="47.20681" lon="5.58842">
        <ele>361.59314</ele>
        <time>2011-04-16T14:18:51Z</time>
      </trkpt>
      <trkpt lat="47.20658" lon="5.58834">
        <ele>364.476929</ele>
        <time>2011-04-16T14:19:12Z</time>
      </trkpt>
      <trkpt lat="47.2064" lon="5.58826">
        <ele>367.841553</ele>
        <time>2011-04-16T14:19:30Z</time>
      </trkpt>
      <trkpt lat="47.20626" lon="5.58819">
        <ele>370.725586</ele>
        <time>2011-04-16T14:19:50Z</time>
      </trkpt>
      <trkpt lat="47.20613" lon="5.58809">
        <ele>373.609497</ele>
        <time>2011-04-16T14:20:11Z</time>
      </trkpt>
      <trkpt lat="47.20595" lon="5.58801">
        <ele>376.012817</ele>
        <time>2011-04-16T14:20:33Z</time>
      </trkpt>
      <trkpt lat="47.20573" lon="5.58791">
        <ele>379.377441</ele>
        <time>2011-04-16T14:20:57Z</time>
      </trkpt>
      <trkpt lat="47.20555" lon="5.58779">
        <ele>381.78064</ele>
        <time>2011-04-16T14:21:20Z</time>
      </trkpt>
      <trkpt lat="47.20531" lon="5.58768">
        <ele>383.222656</ele>
        <time>2011-04-16T14:21:41Z</time>
      </trkpt>
      <trkpt lat="47.20513" lon="5.58763">
        <ele>383.222656</ele>
        <time>2011-04-16T14:21:55Z</time>
      </trkpt>
      <trkpt lat="47.20506" lon="5.58763">
        <ele>382.742065</ele>
        <time>2011-04-16T14:22:21Z</time>
      </trkpt>
      <trkpt lat="47.20492" lon="5.58761">
        <ele>382.742065</ele>
        <time>2011-04-16T14:22:49Z</time>
      </trkpt>
      <trkpt lat="47.20466" lon="5.58757">
        <ele>381.300049</ele>
        <time>2011-04-16T14:23:14Z</time>
      </trkpt>
      <trkpt lat="47.20465" lon="5.58758">
        <ele>381.300049</ele>
        <time>2011-04-16T14:23:15Z</time>
      </trkpt>
      <trkpt lat="47.20448" lon="5.58752">
        <ele>380.338745</ele>
        <time>2011-04-16T14:23:32Z</time>
      </trkpt>
      <trkpt lat="47.20431" lon="5.58744">
        <ele>379.858032</ele>
        <time>2011-04-16T14:23:53Z</time>
      </trkpt>
      <trkpt lat="47.20408" lon="5.58743">
        <ele>380.819458</ele>
        <time>2011-04-16T14:24:14Z</time>
      </trkpt>
      <trkpt lat="47.20395" lon="5.58741">
        <ele>381.78064</ele>
        <time>2011-04-16T14:24:30Z</time>
      </trkpt>
      <trkpt lat="47.20391" lon="5.5872">
        <ele>382.742065</ele>
        <time>2011-04-16T14:24:41Z</time>
      </trkpt>
      <trkpt lat="47.20389" lon="5.58705">
        <ele>383.703247</ele>
        <time>2011-04-16T14:25:07Z</time>
      </trkpt>
      <trkpt lat="47.20384" lon="5.58709">
        <ele>383.703247</ele>
        <time>2011-04-16T14:25:52Z</time>
      </trkpt>
      <trkpt lat="47.2038" lon="5.5871">
        <ele>384.184082</ele>
        <time>2011-04-16T14:25:55Z</time>
      </trkpt>
      <trkpt lat="47.20364" lon="5.58734">
        <ele>384.184082</ele>
        <time>2011-04-16T14:26:13Z</time>
      </trkpt>
      <trkpt lat="47.20356" lon="5.58762">
        <ele>385.145386</ele>
        <time>2011-04-16T14:26:32Z</time>
      </trkpt>
      <trkpt lat="47.20352" lon="5.58781">
        <ele>386.106689</ele>
        <time>2011-04-16T14:26:49Z</time>
      </trkpt>
      <trkpt lat="47.20352" lon="5.58788">
        <ele>386.106689</ele>
        <time>2011-04-16T14:27:07Z</time>
      </trkpt>
      <trkpt lat="47.20351" lon="5.58807">
        <ele>387.548584</ele>
        <time>2011-04-16T14:27:32Z</time>
      </trkpt>
      <trkpt lat="47.20348" lon="5.58844">
        <ele>389.471191</ele>
        <time>2011-04-16T14:27:54Z</time>
      </trkpt>
      <trkpt lat="47.20347" lon="5.58865">
        <ele>391.393799</ele>
        <time>2011-04-16T14:28:10Z</time>
      </trkpt>
      <trkpt lat="47.20348" lon="5.589">
        <ele>394.277954</ele>
        <time>2011-04-16T14:28:35Z</time>
      </trkpt>
      <trkpt lat="47.2035" lon="5.5892">
        <ele>395.719849</ele>
        <time>2011-04-16T14:28:51Z</time>
      </trkpt>
      <trkpt lat="47.20364" lon="5.58956">
        <ele>397.642456</ele>
        <time>2011-04-16T14:29:14Z</time>
      </trkpt>
      <trkpt lat="47.20357" lon="5.58989">
        <ele>399.565063</ele>
        <time>2011-04-16T14:29:33Z</time>
      </trkpt>
      <trkpt lat="47.20342" lon="5.5902">
        <ele>402.929688</ele>
        <time>2011-04-16T14:29:58Z</time>
      </trkpt>
      <trkpt lat="47.20329" lon="5.59039">
        <ele>404.371704</ele>
        <time>2011-04-16T14:30:14Z</time>
      </trkpt>
      <trkpt lat="47.20312" lon="5.59057">
        <ele>406.294312</ele>
        <time>2011-04-16T14:30:38Z</time>
      </trkpt>
      <trkpt lat="47.20304" lon="5.5904">
        <ele>406.294312</ele>
        <time>2011-04-16T14:30:47Z</time>
      </trkpt>
      <trkpt lat="47.20292" lon="5.59019">
        <ele>406.294312</ele>
        <time>2011-04-16T14:31:02Z</time>
      </trkpt>
      <trkpt lat="47.20286" lon="5.59007">
        <ele>406.774902</ele>
        <time>2011-04-16T14:31:24Z</time>
      </trkpt>
      <trkpt lat="47.20281" lon="5.58993">
        <ele>405.333008</ele>
        <time>2011-04-16T14:32:17Z</time>
      </trkpt>
      <trkpt lat="47.20274" lon="5.58982">
        <ele>404.852295</ele>
        <time>2011-04-16T14:32:35Z</time>
      </trkpt>
      <trkpt lat="47.20253" lon="5.58952">
        <ele>403.891113</ele>
        <time>2011-04-16T14:32:57Z</time>
      </trkpt>
      <trkpt lat="47.20236" lon="5.58918">
        <ele>403.4104</ele>
        <time>2011-04-16T14:33:20Z</time>
      </trkpt>
      <trkpt lat="47.20216" lon="5.58886">
        <ele>402.449097</ele>
        <time>2011-04-16T14:33:45Z</time>
      </trkpt>
      <trkpt lat="47.20199" lon="5.58857">
        <ele>402.449097</ele>
        <time>2011-04-16T14:34:07Z</time>
      </trkpt>
      <trkpt lat="47.2018" lon="5.58827">
        <ele>401.487793</ele>
        <time>2011-04-16T14:34:30Z</time>
      </trkpt>
      <trkpt lat="47.20162" lon="5.58795">
        <ele>401.487793</ele>
        <time>2011-04-16T14:34:51Z</time>
      </trkpt>
      <trkpt lat="47.20142" lon="5.5877">
        <ele>401.487793</ele>
        <time>2011-04-16T14:35:11Z</time>
      </trkpt>
      <trkpt lat="47.20125" lon="5.58735">
        <ele>401.968506</ele>
        <time>2011-04-16T14:35:34Z</time>
      </trkpt>
      <trkpt lat="47.20106" lon="5.5871">
        <ele>401.968506</ele>
        <time>2011-04-16T14:35:56Z</time>
      </trkpt>
      <trkpt lat="47.20097" lon="5.58691">
        <ele>401.968506</ele>
        <time>2011-04-16T14:36:14Z</time>
      </trkpt>
      <trkpt lat="47.20083" lon="5.58665">
        <ele>401.487793</ele>
        <time>2011-04-16T14:36:33Z</time>
      </trkpt>
      <trkpt lat="47.20069" lon="5.58649">
        <ele>400.526489</ele>
        <time>2011-04-16T14:36:44Z</time>
      </trkpt>
      <trkpt lat="47.20058" lon="5.58619">
        <ele>399.084351</ele>
        <time>2011-04-16T14:37:01Z</time>
      </trkpt>
      <trkpt lat="47.20043" lon="5.58598">
        <ele>398.123169</ele>
        <time>2011-04-16T14:37:17Z</time>
      </trkpt>
      <trkpt lat="47.20027" lon="5.58573">
        <ele>396.681152</ele>
        <time>2011-04-16T14:37:38Z</time>
      </trkpt>
      <trkpt lat="47.20007" lon="5.58531">
        <ele>394.758545</ele>
        <time>2011-04-16T14:38:03Z</time>
      </trkpt>
      <trkpt lat="47.19985" lon="5.58501">
        <ele>392.355347</ele>
        <time>2011-04-16T14:38:26Z</time>
      </trkpt>
      <trkpt lat="47.19971" lon="5.58475">
        <ele>389.951904</ele>
        <time>2011-04-16T14:38:45Z</time>
      </trkpt>
      <trkpt lat="47.19968" lon="5.5847">
        <ele>389.471191</ele>
        <time>2011-04-16T14:38:49Z</time>
      </trkpt>
      <trkpt lat="47.19962" lon="5.58464">
        <ele>388.990601</ele>
        <time>2011-04-16T14:38:53Z</time>
      </trkpt>
      <trkpt lat="47.1996" lon="5.58461">
        <ele>388.51001</ele>
        <time>2011-04-16T14:38:55Z</time>
      </trkpt>
      <trkpt lat="47.19949" lon="5.58436">
        <ele>386.587402</ele>
        <time>2011-04-16T14:39:09Z</time>
      </trkpt>
      <trkpt lat="47.19935" lon="5.58428">
        <ele>384.664795</ele>
        <time>2011-04-16T14:39:26Z</time>
      </trkpt>
      <trkpt lat="47.19913" lon="5.58446">
        <ele>381.300049</ele>
        <time>2011-04-16T14:39:45Z</time>
      </trkpt>
      <trkpt lat="47.199" lon="5.5847">
        <ele>378.416138</ele>
        <time>2011-04-16T14:40:02Z</time>
      </trkpt>
      <trkpt lat="47.1989" lon="5.585">
        <ele>376.012817</ele>
        <time>2011-04-16T14:40:24Z</time>
      </trkpt>
      <trkpt lat="47.19882" lon="5.58517">
        <ele>373.609497</ele>
        <time>2011-04-16T14:40:40Z</time>
      </trkpt>
      <trkpt lat="47.1987" lon="5.58529">
        <ele>371.206299</ele>
        <time>2011-04-16T14:41:00Z</time>
      </trkpt>
      <trkpt lat="47.19865" lon="5.58539">
        <ele>372.16748</ele>
        <time>2011-04-16T14:41:15Z</time>
      </trkpt>
      <trkpt lat="47.19846" lon="5.58543">
        <ele>373.609497</ele>
        <time>2011-04-16T14:41:33Z</time>
      </trkpt>
      <trkpt lat="47.19825" lon="5.58545">
        <ele>376.974243</ele>
        <time>2011-04-16T14:41:53Z</time>
      </trkpt>
      <trkpt lat="47.19812" lon="5.58544">
        <ele>379.858032</ele>
        <time>2011-04-16T14:42:08Z</time>
      </trkpt>
      <trkpt lat="47.19792" lon="5.58538">
        <ele>382.742065</ele>
        <time>2011-04-16T14:42:27Z</time>
      </trkpt>
      <trkpt lat="47.19778" lon="5.58543">
        <ele>384.664795</ele>
        <time>2011-04-16T14:42:43Z</time>
      </trkpt>
      <trkpt lat="47.19763" lon="5.58559">
        <ele>388.029297</ele>
        <time>2011-04-16T14:43:02Z</time>
      </trkpt>
      <trkpt lat="47.19741" lon="5.58576">
        <ele>390.432617</ele>
        <time>2011-04-16T14:43:24Z</time>
      </trkpt>
      <trkpt lat="47.19733" lon="5.58606">
        <ele>392.835938</ele>
        <time>2011-04-16T14:43:46Z</time>
      </trkpt>
      <trkpt lat="47.19719" lon="5.58631">
        <ele>394.758545</ele>
        <time>2011-04-16T14:44:06Z</time>
      </trkpt>
      <trkpt lat="47.19706" lon="5.58649">
        <ele>395.239136</ele>
        <time>2011-04-16T14:44:24Z</time>
      </trkpt>
      <trkpt lat="47.19687" lon="5.58676">
        <ele>395.719849</ele>
        <time>2011-04-16T14:44:45Z</time>
      </trkpt>
      <trkpt lat="47.19673" lon="5.58693">
        <ele>395.719849</ele>
        <time>2011-04-16T14:45:02Z</time>
      </trkpt>
      <trkpt lat="47.19658" lon="5.58715">
        <ele>395.719849</ele>
        <time>2011-04-16T14:45:24Z</time>
      </trkpt>
      <trkpt lat="47.19649" lon="5.58724">
        <ele>394.758545</ele>
        <time>2011-04-16T14:45:34Z</time>
      </trkpt>
      <trkpt lat="47.19639" lon="5.58741">
        <ele>397.161743</ele>
        <time>2011-04-16T14:45:49Z</time>
      </trkpt>
      <trkpt lat="47.19624" lon="5.58758">
        <ele>400.526489</ele>
        <time>2011-04-16T14:46:06Z</time>
      </trkpt>
      <trkpt lat="47.19609" lon="5.58787">
        <ele>402.449097</ele>
        <time>2011-04-16T14:46:27Z</time>
      </trkpt>
      <trkpt lat="47.19594" lon="5.58806">
        <ele>403.891113</ele>
        <time>2011-04-16T14:46:43Z</time>
      </trkpt>
      <trkpt lat="47.19576" lon="5.58825">
        <ele>404.371704</ele>
        <time>2011-04-16T14:47:02Z</time>
      </trkpt>
      <trkpt lat="47.19557" lon="5.58845">
        <ele>404.371704</ele>
        <time>2011-04-16T14:47:23Z</time>
      </trkpt>
      <trkpt lat="47.19548" lon="5.58841">
        <ele>404.852295</ele>
        <time>2011-04-16T14:47:41Z</time>
      </trkpt>
      <trkpt lat="47.19533" lon="5.5882">
        <ele>405.333008</ele>
        <time>2011-04-16T14:48:00Z</time>
      </trkpt>
      <trkpt lat="47.19534" lon="5.58822">
        <ele>405.333008</ele>
        <time>2011-04-16T14:48:36Z</time>
      </trkpt>
      <trkpt lat="47.19531" lon="5.5885">
        <ele>401.968506</ele>
        <time>2011-04-16T14:51:47Z</time>
      </trkpt>
      <trkpt lat="47.19521" lon="5.58881">
        <ele>400.045898</ele>
        <time>2011-04-16T14:52:05Z</time>
      </trkpt>
      <trkpt lat="47.19521" lon="5.58897">
        <ele>398.60376</ele>
        <time>2011-04-16T14:52:17Z</time>
      </trkpt>
      <trkpt lat="47.19523" lon="5.58945">
        <ele>396.681152</ele>
        <time>2011-04-16T14:52:38Z</time>
      </trkpt>
      <trkpt lat="47.19542" lon="5.58968">
        <ele>396.681152</ele>
        <time>2011-04-16T14:52:59Z</time>
      </trkpt>
      <trkpt lat="47.19558" lon="5.58991">
        <ele>397.161743</ele>
        <time>2011-04-16T14:53:17Z</time>
      </trkpt>
      <trkpt lat="47.19582" lon="5.59014">
        <ele>397.642456</ele>
        <time>2011-04-16T14:53:38Z</time>
      </trkpt>
      <trkpt lat="47.19604" lon="5.59012">
        <ele>398.60376</ele>
        <time>2011-04-16T14:53:57Z</time>
      </trkpt>
      <trkpt lat="47.19614" lon="5.59027">
        <ele>399.084351</ele>
        <time>2011-04-16T14:54:12Z</time>
      </trkpt>
      <trkpt lat="47.19616" lon="5.5903">
        <ele>399.084351</ele>
        <time>2011-04-16T14:54:15Z</time>
      </trkpt>
      <trkpt lat="47.19627" lon="5.59057">
        <ele>399.084351</ele>
        <time>2011-04-16T14:54:31Z</time>
      </trkpt>
      <trkpt lat="47.19636" lon="5.59065">
        <ele>399.565063</ele>
        <time>2011-04-16T14:54:38Z</time>
      </trkpt>
      <trkpt lat="47.1965" lon="5.59078">
        <ele>399.565063</ele>
        <time>2011-04-16T14:54:50Z</time>
      </trkpt>
      <trkpt lat="47.19659" lon="5.59095">
        <ele>400.045898</ele>
        <time>2011-04-16T14:55:01Z</time>
      </trkpt>
      <trkpt lat="47.19662" lon="5.59099">
        <ele>400.045898</ele>
        <time>2011-04-16T14:55:05Z</time>
      </trkpt>
      <trkpt lat="47.19666" lon="5.59108">
        <ele>400.045898</ele>
        <time>2011-04-16T14:55:11Z</time>
      </trkpt>
      <trkpt lat="47.19677" lon="5.59124">
        <ele>400.526489</ele>
        <time>2011-04-16T14:55:23Z</time>
      </trkpt>
      <trkpt lat="47.1968" lon="5.59135">
        <ele>400.526489</ele>
        <time>2011-04-16T14:55:27Z</time>
      </trkpt>
      <trkpt lat="47.19688" lon="5.59141">
        <ele>401.00708</ele>
        <time>2011-04-16T14:55:33Z</time>
      </trkpt>
      <trkpt lat="47.19698" lon="5.5915">
        <ele>401.487793</ele>
        <time>2011-04-16T14:55:43Z</time>
      </trkpt>
      <trkpt lat="47.197" lon="5.59157">
        <ele>401.487793</ele>
        <time>2011-04-16T14:55:46Z</time>
      </trkpt>
      <trkpt lat="47.1971" lon="5.59171">
        <ele>401.968506</ele>
        <time>2011-04-16T14:55:57Z</time>
      </trkpt>
      <trkpt lat="47.19713" lon="5.59174">
        <ele>402.449097</ele>
        <time>2011-04-16T14:56:01Z</time>
      </trkpt>
      <trkpt lat="47.19739" lon="5.59206">
        <ele>403.4104</ele>
        <time>2011-04-16T14:56:23Z</time>
      </trkpt>
      <trkpt lat="47.19744" lon="5.59214">
        <ele>403.891113</ele>
        <time>2011-04-16T14:56:29Z</time>
      </trkpt>
      <trkpt lat="47.19753" lon="5.59224">
        <ele>403.891113</ele>
        <time>2011-04-16T14:56:40Z</time>
      </trkpt>
      <trkpt lat="47.19756" lon="5.59225">
        <ele>402.929688</ele>
        <time>2011-04-16T14:56:43Z</time>
      </trkpt>
      <trkpt lat="47.19764" lon="5.59239">
        <ele>405.333008</ele>
        <time>2011-04-16T14:56:54Z</time>
      </trkpt>
      <trkpt lat="47.1978" lon="5.59255">
        <ele>405.333008</ele>
        <time>2011-04-16T14:57:10Z</time>
      </trkpt>
      <trkpt lat="47.19792" lon="5.59264">
        <ele>405.333008</ele>
        <time>2011-04-16T14:57:18Z</time>
      </trkpt>
      <trkpt lat="47.19794" lon="5.59272">
        <ele>405.333008</ele>
        <time>2011-04-16T14:57:23Z</time>
      </trkpt>
      <trkpt lat="47.19802" lon="5.5929">
        <ele>405.333008</ele>
        <time>2011-04-16T14:57:34Z</time>
      </trkpt>
      <trkpt lat="47.19813" lon="5.59304">
        <ele>404.852295</ele>
        <time>2011-04-16T14:57:45Z</time>
      </trkpt>
      <trkpt lat="47.19828" lon="5.59315">
        <ele>404.852295</ele>
        <time>2011-04-16T14:58:00Z</time>
      </trkpt>
      <trkpt lat="47.1985" lon="5.59319">
        <ele>405.333008</ele>
        <time>2011-04-16T14:58:14Z</time>
      </trkpt>
      <trkpt lat="47.19867" lon="5.5933">
        <ele>404.852295</ele>
        <time>2011-04-16T14:58:28Z</time>
      </trkpt>
      <trkpt lat="47.19873" lon="5.59334">
        <ele>404.371704</ele>
        <time>2011-04-16T14:58:37Z</time>
      </trkpt>
      <trkpt lat="47.19875" lon="5.59337">
        <ele>404.371704</ele>
        <time>2011-04-16T14:58:41Z</time>
      </trkpt>
      <trkpt lat="47.19892" lon="5.59344">
        <ele>404.371704</ele>
        <time>2011-04-16T14:58:55Z</time>
      </trkpt>
      <trkpt lat="47.19894" lon="5.59346">
        <ele>404.852295</ele>
        <time>2011-04-16T14:58:57Z</time>
      </trkpt>
      <trkpt lat="47.19917" lon="5.59359">
        <ele>405.333008</ele>
        <time>2011-04-16T14:59:19Z</time>
      </trkpt>
      <trkpt lat="47.19931" lon="5.5937">
        <ele>405.813721</ele>
        <time>2011-04-16T14:59:32Z</time>
      </trkpt>
      <trkpt lat="47.19945" lon="5.59388">
        <ele>406.294312</ele>
        <time>2011-04-16T14:59:46Z</time>
      </trkpt>
      <trkpt lat="47.19968" lon="5.59397">
        <ele>406.774902</ele>
        <time>2011-04-16T15:00:02Z</time>
      </trkpt>
      <trkpt lat="47.19982" lon="5.59402">
        <ele>407.255615</ele>
        <time>2011-04-16T15:00:14Z</time>
      </trkpt>
      <trkpt lat="47.20001" lon="5.59408">
        <ele>407.736328</ele>
        <time>2011-04-16T15:00:30Z</time>
      </trkpt>
      <trkpt lat="47.20022" lon="5.59401">
        <ele>407.255615</ele>
        <time>2011-04-16T15:00:45Z</time>
      </trkpt>
      <trkpt lat="47.20036" lon="5.59393">
        <ele>407.255615</ele>
        <time>2011-04-16T15:00:56Z</time>
      </trkpt>
      <trkpt lat="47.20047" lon="5.59384">
        <ele>406.774902</ele>
        <time>2011-04-16T15:01:06Z</time>
      </trkpt>
      <trkpt lat="47.2005" lon="5.59384">
        <ele>406.774902</ele>
        <time>2011-04-16T15:01:08Z</time>
      </trkpt>
      <trkpt lat="47.20076" lon="5.59353">
        <ele>406.294312</ele>
        <time>2011-04-16T15:01:34Z</time>
      </trkpt>
      <trkpt lat="47.20089" lon="5.59367">
        <ele>406.774902</ele>
        <time>2011-04-16T15:01:49Z</time>
      </trkpt>
      <trkpt lat="47.20087" lon="5.59368">
        <ele>406.774902</ele>
        <time>2011-04-16T15:01:50Z</time>
      </trkpt>
      <trkpt lat="47.20088" lon="5.59381">
        <ele>407.255615</ele>
        <time>2011-04-16T15:01:56Z</time>
      </trkpt>
      <trkpt lat="47.20089" lon="5.5941">
        <ele>408.697632</ele>
        <time>2011-04-16T15:02:12Z</time>
      </trkpt>
      <trkpt lat="47.20095" lon="5.59425">
        <ele>408.697632</ele>
        <time>2011-04-16T15:02:25Z</time>
      </trkpt>
      <trkpt lat="47.2011" lon="5.59446">
        <ele>409.178345</ele>
        <time>2011-04-16T15:02:48Z</time>
      </trkpt>
      <trkpt lat="47.2012" lon="5.59459">
        <ele>409.178345</ele>
        <time>2011-04-16T15:03:00Z</time>
      </trkpt>
      <trkpt lat="47.20136" lon="5.5948">
        <ele>409.659058</ele>
        <time>2011-04-16T15:03:17Z</time>
      </trkpt>
      <trkpt lat="47.20145" lon="5.595">
        <ele>409.178345</ele>
        <time>2011-04-16T15:03:33Z</time>
      </trkpt>
      <trkpt lat="47.20155" lon="5.59525">
        <ele>408.697632</ele>
        <time>2011-04-16T15:03:54Z</time>
      </trkpt>
      <trkpt lat="47.20167" lon="5.59544">
        <ele>408.217041</ele>
        <time>2011-04-16T15:04:10Z</time>
      </trkpt>
      <trkpt lat="47.20192" lon="5.59556">
        <ele>406.774902</ele>
        <time>2011-04-16T15:04:32Z</time>
      </trkpt>
      <trkpt lat="47.20194" lon="5.59559">
        <ele>406.774902</ele>
        <time>2011-04-16T15:04:35Z</time>
      </trkpt>
      <trkpt lat="47.20224" lon="5.59578">
        <ele>405.333008</ele>
        <time>2011-04-16T15:04:57Z</time>
      </trkpt>
      <trkpt lat="47.20228" lon="5.59584">
        <ele>405.333008</ele>
        <time>2011-04-16T15:05:03Z</time>
      </trkpt>
      <trkpt lat="47.20245" lon="5.59602">
        <ele>404.852295</ele>
        <time>2011-04-16T15:05:18Z</time>
      </trkpt>
      <trkpt lat="47.20246" lon="5.59604">
        <ele>404.852295</ele>
        <time>2011-04-16T15:05:19Z</time>
      </trkpt>
      <trkpt lat="47.20252" lon="5.59623">
        <ele>404.852295</ele>
        <time>2011-04-16T15:05:31Z</time>
      </trkpt>
      <trkpt lat="47.20266" lon="5.5965">
        <ele>404.371704</ele>
        <time>2011-04-16T15:05:49Z</time>
      </trkpt>
      <trkpt lat="47.20284" lon="5.5965">
        <ele>405.813721</ele>
        <time>2011-04-16T15:06:37Z</time>
      </trkpt>
      <trkpt lat="47.2029" lon="5.59632">
        <ele>407.255615</ele>
        <time>2011-04-16T15:06:54Z</time>
      </trkpt>
      <trkpt lat="47.20292" lon="5.59631">
        <ele>406.774902</ele>
        <time>2011-04-16T15:06:56Z</time>
      </trkpt>
      <trkpt lat="47.20301" lon="5.59615">
        <ele>407.736328</ele>
        <time>2011-04-16T15:07:13Z</time>
      </trkpt>
      <trkpt lat="47.20306" lon="5.59613">
        <ele>406.774902</ele>
        <time>2011-04-16T15:07:53Z</time>
      </trkpt>
      <trkpt lat="47.20318" lon="5.59641">
        <ele>405.813721</ele>
        <time>2011-04-16T15:08:20Z</time>
      </trkpt>
      <trkpt lat="47.20319" lon="5.59656">
        <ele>404.852295</ele>
        <time>2011-04-16T15:08:34Z</time>
      </trkpt>
      <trkpt lat="47.20316" lon="5.59685">
        <ele>403.891113</ele>
        <time>2011-04-16T15:08:52Z</time>
      </trkpt>
      <trkpt lat="47.20323" lon="5.59706">
        <ele>402.929688</ele>
        <time>2011-04-16T15:09:09Z</time>
      </trkpt>
      <trkpt lat="47.20324" lon="5.59707">
        <ele>402.929688</ele>
        <time>2011-04-16T15:09:11Z</time>
      </trkpt>
      <trkpt lat="47.20335" lon="5.59727">
        <ele>401.968506</ele>
        <time>2011-04-16T15:09:28Z</time>
      </trkpt>
      <trkpt lat="47.20341" lon="5.59732">
        <ele>401.968506</ele>
        <time>2011-04-16T15:09:32Z</time>
      </trkpt>
      <trkpt lat="47.20347" lon="5.5975">
        <ele>401.00708</ele>
        <time>2011-04-16T15:09:48Z</time>
      </trkpt>
      <trkpt lat="47.20348" lon="5.59768">
        <ele>400.045898</ele>
        <time>2011-04-16T15:10:02Z</time>
      </trkpt>
      <trkpt lat="47.20359" lon="5.59787">
        <ele>399.565063</ele>
        <time>2011-04-16T15:10:20Z</time>
      </trkpt>
      <trkpt lat="47.20364" lon="5.59812">
        <ele>399.084351</ele>
        <time>2011-04-16T15:10:38Z</time>
      </trkpt>
      <trkpt lat="47.20361" lon="5.59822">
        <ele>399.084351</ele>
        <time>2011-04-16T15:10:45Z</time>
      </trkpt>
      <trkpt lat="47.20352" lon="5.59849">
        <ele>398.60376</ele>
        <time>2011-04-16T15:11:01Z</time>
      </trkpt>
      <trkpt lat="47.20355" lon="5.59872">
        <ele>398.123169</ele>
        <time>2011-04-16T15:11:18Z</time>
      </trkpt>
      <trkpt lat="47.20354" lon="5.59899">
        <ele>398.60376</ele>
        <time>2011-04-16T15:11:35Z</time>
      </trkpt>
      <trkpt lat="47.2035" lon="5.59915">
        <ele>398.123169</ele>
        <time>2011-04-16T15:11:44Z</time>
      </trkpt>
      <trkpt lat="47.20348" lon="5.59922">
        <ele>398.123169</ele>
        <time>2011-04-16T15:11:52Z</time>
      </trkpt>
      <trkpt lat="47.20347" lon="5.59926">
        <ele>398.123169</ele>
        <time>2011-04-16T15:11:54Z</time>
      </trkpt>
      <trkpt lat="47.20351" lon="5.59944">
        <ele>398.123169</ele>
        <time>2011-04-16T15:12:06Z</time>
      </trkpt>
      <trkpt lat="47.20351" lon="5.59945">
        <ele>398.123169</ele>
        <time>2011-04-16T15:12:07Z</time>
      </trkpt>
      <trkpt lat="47.20365" lon="5.59962">
        <ele>398.123169</ele>
        <time>2011-04-16T15:12:29Z</time>
      </trkpt>
      <trkpt lat="47.20368" lon="5.59975">
        <ele>397.642456</ele>
        <time>2011-04-16T15:12:44Z</time>
      </trkpt>
      <trkpt lat="47.2037" lon="5.59987">
        <ele>397.642456</ele>
        <time>2011-04-16T15:13:03Z</time>
      </trkpt>
      <trkpt lat="47.20373" lon="5.60004">
        <ele>397.642456</ele>
        <time>2011-04-16T15:13:21Z</time>
      </trkpt>
      <trkpt lat="47.20377" lon="5.60017">
        <ele>398.123169</ele>
        <time>2011-04-16T15:13:36Z</time>
      </trkpt>
      <trkpt lat="47.2038" lon="5.60035">
        <ele>398.123169</ele>
        <time>2011-04-16T15:13:55Z</time>
      </trkpt>
      <trkpt lat="47.20383" lon="5.60058">
        <ele>399.084351</ele>
        <time>2011-04-16T15:14:15Z</time>
      </trkpt>
      <trkpt lat="47.20383" lon="5.60069">
        <ele>399.565063</ele>
        <time>2011-04-16T15:14:29Z</time>
      </trkpt>
      <trkpt lat="47.20382" lon="5.60086">
        <ele>400.045898</ele>
        <time>2011-04-16T15:14:43Z</time>
      </trkpt>
      <trkpt lat="47.20377" lon="5.60099">
        <ele>400.526489</ele>
        <time>2011-04-16T15:15:00Z</time>
      </trkpt>
      <trkpt lat="47.20371" lon="5.60114">
        <ele>400.045898</ele>
        <time>2011-04-16T15:15:21Z</time>
      </trkpt>
      <trkpt lat="47.20364" lon="5.60132">
        <ele>399.084351</ele>
        <time>2011-04-16T15:15:39Z</time>
      </trkpt>
      <trkpt lat="47.20362" lon="5.60147">
        <ele>396.681152</ele>
        <time>2011-04-16T15:15:58Z</time>
      </trkpt>
      <trkpt lat="47.20364" lon="5.60165">
        <ele>393.316528</ele>
        <time>2011-04-16T15:16:16Z</time>
      </trkpt>
      <trkpt lat="47.20366" lon="5.60167">
        <ele>392.835938</ele>
        <time>2011-04-16T15:16:21Z</time>
      </trkpt>
      <trkpt lat="47.20365" lon="5.60186">
        <ele>389.951904</ele>
        <time>2011-04-16T15:16:36Z</time>
      </trkpt>
      <trkpt lat="47.20362" lon="5.60194">
        <ele>388.51001</ele>
        <time>2011-04-16T15:16:43Z</time>
      </trkpt>
      <trkpt lat="47.20367" lon="5.60213">
        <ele>385.145386</ele>
        <time>2011-04-16T15:16:59Z</time>
      </trkpt>
      <trkpt lat="47.20374" lon="5.60229">
        <ele>382.261353</ele>
        <time>2011-04-16T15:17:17Z</time>
      </trkpt>
      <trkpt lat="47.20384" lon="5.60253">
        <ele>379.858032</ele>
        <time>2011-04-16T15:17:42Z</time>
      </trkpt>
      <trkpt lat="47.20393" lon="5.60266">
        <ele>378.416138</ele>
        <time>2011-04-16T15:18:02Z</time>
      </trkpt>
      <trkpt lat="47.20416" lon="5.60266">
        <ele>376.49353</ele>
        <time>2011-04-16T15:18:23Z</time>
      </trkpt>
      <trkpt lat="47.20442" lon="5.60281">
        <ele>374.570801</ele>
        <time>2011-04-16T15:18:41Z</time>
      </trkpt>
      <trkpt lat="47.20477" lon="5.60276">
        <ele>371.68689</ele>
        <time>2011-04-16T15:18:55Z</time>
      </trkpt>
      <trkpt lat="47.2048" lon="5.60292">
        <ele>368.322266</ele>
        <time>2011-04-16T15:19:11Z</time>
      </trkpt>
      <trkpt lat="47.20483" lon="5.60307">
        <ele>365.438354</ele>
        <time>2011-04-16T15:19:24Z</time>
      </trkpt>
      <trkpt lat="47.20485" lon="5.60307">
        <ele>364.957642</ele>
        <time>2011-04-16T15:19:25Z</time>
      </trkpt>
      <trkpt lat="47.20483" lon="5.60313">
        <ele>364.476929</ele>
        <time>2011-04-16T15:19:28Z</time>
      </trkpt>
      <trkpt lat="47.20486" lon="5.60335">
        <ele>361.59314</ele>
        <time>2011-04-16T15:19:44Z</time>
      </trkpt>
      <trkpt lat="47.20483" lon="5.60366">
        <ele>359.189697</ele>
        <time>2011-04-16T15:19:59Z</time>
      </trkpt>
      <trkpt lat="47.20481" lon="5.60397">
        <ele>357.26709</ele>
        <time>2011-04-16T15:20:14Z</time>
      </trkpt>
      <trkpt lat="47.20501" lon="5.60418">
        <ele>354.86377</ele>
        <time>2011-04-16T15:20:28Z</time>
      </trkpt>
      <trkpt lat="47.20493" lon="5.60441">
        <ele>353.421875</ele>
        <time>2011-04-16T15:20:43Z</time>
      </trkpt>
      <trkpt lat="47.2048" lon="5.60488">
        <ele>350.537842</ele>
        <time>2011-04-16T15:21:00Z</time>
      </trkpt>
      <trkpt lat="47.20468" lon="5.60543">
        <ele>347.653931</ele>
        <time>2011-04-16T15:21:18Z</time>
      </trkpt>
      <trkpt lat="47.20458" lon="5.60596">
        <ele>344.77002</ele>
        <time>2011-04-16T15:21:36Z</time>
      </trkpt>
      <trkpt lat="47.20458" lon="5.606">
        <ele>344.289429</ele>
        <time>2011-04-16T15:21:38Z</time>
      </trkpt>
      <trkpt lat="47.20451" lon="5.60636">
        <ele>343.327881</ele>
        <time>2011-04-16T15:21:47Z</time>
      </trkpt>
      <trkpt lat="47.20448" lon="5.60662">
        <ele>342.84729</ele>
        <time>2011-04-16T15:21:53Z</time>
      </trkpt>
      <trkpt lat="47.2044" lon="5.60687">
        <ele>342.366699</ele>
        <time>2011-04-16T15:21:57Z</time>
      </trkpt>
      <trkpt lat="47.20441" lon="5.60693">
        <ele>341.885986</ele>
        <time>2011-04-16T15:22:00Z</time>
      </trkpt>
      <trkpt lat="47.20433" lon="5.60743">
        <ele>339.482666</ele>
        <time>2011-04-16T15:22:16Z</time>
      </trkpt>
      <trkpt lat="47.20436" lon="5.60763">
        <ele>336.598877</ele>
        <time>2011-04-16T15:22:30Z</time>
      </trkpt>
      <trkpt lat="47.20437" lon="5.60763">
        <ele>336.118164</ele>
        <time>2011-04-16T15:22:31Z</time>
      </trkpt>
      <trkpt lat="47.20434" lon="5.60802">
        <ele>332.75354</ele>
        <time>2011-04-16T15:22:46Z</time>
      </trkpt>
      <trkpt lat="47.20438" lon="5.60832">
        <ele>329.388916</ele>
        <time>2011-04-16T15:23:04Z</time>
      </trkpt>
      <trkpt lat="47.20437" lon="5.60844">
        <ele>328.427612</ele>
        <time>2011-04-16T15:23:11Z</time>
      </trkpt>
      <trkpt lat="47.20436" lon="5.6089">
        <ele>325.543579</ele>
        <time>2011-04-16T15:23:29Z</time>
      </trkpt>
      <trkpt lat="47.20434" lon="5.60954">
        <ele>322.659668</ele>
        <time>2011-04-16T15:23:52Z</time>
      </trkpt>
      <trkpt lat="47.20433" lon="5.60963">
        <ele>322.178955</ele>
        <time>2011-04-16T15:23:55Z</time>
      </trkpt>
      <trkpt lat="47.20429" lon="5.60986">
        <ele>321.217773</ele>
        <time>2011-04-16T15:24:01Z</time>
      </trkpt>
      <trkpt lat="47.20429" lon="5.61008">
        <ele>320.256348</ele>
        <time>2011-04-16T15:24:11Z</time>
      </trkpt>
      <trkpt lat="47.20438" lon="5.61019">
        <ele>318.333618</ele>
        <time>2011-04-16T15:24:27Z</time>
      </trkpt>
      <trkpt lat="47.20439" lon="5.61038">
        <ele>316.891724</ele>
        <time>2011-04-16T15:24:35Z</time>
      </trkpt>
      <trkpt lat="47.20438" lon="5.61047">
        <ele>316.411011</ele>
        <time>2011-04-16T15:24:39Z</time>
      </trkpt>
      <trkpt lat="47.20439" lon="5.61054">
        <ele>315.93042</ele>
        <time>2011-04-16T15:24:42Z</time>
      </trkpt>
      <trkpt lat="47.20439" lon="5.61062">
        <ele>314.969116</ele>
        <time>2011-04-16T15:24:45Z</time>
      </trkpt>
      <trkpt lat="47.20443" lon="5.61078">
        <ele>313.046509</ele>
        <time>2011-04-16T15:24:55Z</time>
      </trkpt>
      <trkpt lat="47.20436" lon="5.61117">
        <ele>311.123779</ele>
        <time>2011-04-16T15:25:08Z</time>
      </trkpt>
      <trkpt lat="47.20436" lon="5.6112">
        <ele>310.643066</ele>
        <time>2011-04-16T15:25:10Z</time>
      </trkpt>
      <trkpt lat="47.20437" lon="5.61161">
        <ele>308.239868</ele>
        <time>2011-04-16T15:25:25Z</time>
      </trkpt>
      <trkpt lat="47.2044" lon="5.61184">
        <ele>304.875244</ele>
        <time>2011-04-16T15:25:37Z</time>
      </trkpt>
      <trkpt lat="47.20429" lon="5.61224">
        <ele>301.991333</ele>
        <time>2011-04-16T15:25:51Z</time>
      </trkpt>
      <trkpt lat="47.20418" lon="5.61259">
        <ele>298.626709</ele>
        <time>2011-04-16T15:26:05Z</time>
      </trkpt>
      <trkpt lat="47.20418" lon="5.61278">
        <ele>296.704102</ele>
        <time>2011-04-16T15:26:19Z</time>
      </trkpt>
      <trkpt lat="47.20414" lon="5.61306">
        <ele>293.820068</ele>
        <time>2011-04-16T15:26:33Z</time>
      </trkpt>
      <trkpt lat="47.2041" lon="5.61328">
        <ele>290.936157</ele>
        <time>2011-04-16T15:26:45Z</time>
      </trkpt>
      <trkpt lat="47.20402" lon="5.61341">
        <ele>289.974854</ele>
        <time>2011-04-16T15:26:53Z</time>
      </trkpt>
      <trkpt lat="47.204" lon="5.61351">
        <ele>288.532959</ele>
        <time>2011-04-16T15:27:00Z</time>
      </trkpt>
      <trkpt lat="47.20402" lon="5.61356">
        <ele>288.052246</ele>
        <time>2011-04-16T15:27:04Z</time>
      </trkpt>
      <trkpt lat="47.20406" lon="5.61359">
        <ele>288.052246</ele>
        <time>2011-04-16T15:27:07Z</time>
      </trkpt>
      <trkpt lat="47.2042" lon="5.61362">
        <ele>286.129517</ele>
        <time>2011-04-16T15:27:22Z</time>
      </trkpt>
      <trkpt lat="47.20424" lon="5.61382">
        <ele>284.206909</ele>
        <time>2011-04-16T15:27:33Z</time>
      </trkpt>
      <trkpt lat="47.20424" lon="5.61411">
        <ele>281.803589</ele>
        <time>2011-04-16T15:27:50Z</time>
      </trkpt>
      <trkpt lat="47.20417" lon="5.61439">
        <ele>279.400269</ele>
        <time>2011-04-16T15:28:05Z</time>
      </trkpt>
      <trkpt lat="47.20418" lon="5.61451">
        <ele>278.919678</ele>
        <time>2011-04-16T15:28:14Z</time>
      </trkpt>
      <trkpt lat="47.20419" lon="5.61457">
        <ele>278.438965</ele>
        <time>2011-04-16T15:28:18Z</time>
      </trkpt>
      <trkpt lat="47.20421" lon="5.61462">
        <ele>277.958252</ele>
        <time>2011-04-16T15:28:21Z</time>
      </trkpt>
      <trkpt lat="47.20422" lon="5.61466">
        <ele>277.477661</ele>
        <time>2011-04-16T15:28:24Z</time>
      </trkpt>
      <trkpt lat="47.20423" lon="5.6147">
        <ele>277.477661</ele>
        <time>2011-04-16T15:28:27Z</time>
      </trkpt>
      <trkpt lat="47.20422" lon="5.61478">
        <ele>277.477661</ele>
        <time>2011-04-16T15:28:31Z</time>
      </trkpt>
      <trkpt lat="47.20437" lon="5.61493">
        <ele>276.035645</ele>
        <time>2011-04-16T15:28:47Z</time>
      </trkpt>
      <trkpt lat="47.20438" lon="5.61497">
        <ele>276.035645</ele>
        <time>2011-04-16T15:28:49Z</time>
      </trkpt>
      <trkpt lat="47.20444" lon="5.61509">
        <ele>274.59375</ele>
        <time>2011-04-16T15:28:58Z</time>
      </trkpt>
      <trkpt lat="47.20446" lon="5.61514">
        <ele>274.59375</ele>
        <time>2011-04-16T15:29:02Z</time>
      </trkpt>
      <trkpt lat="47.20452" lon="5.61519">
        <ele>274.113037</ele>
        <time>2011-04-16T15:29:07Z</time>
      </trkpt>
      <trkpt lat="47.2046" lon="5.61526">
        <ele>273.151855</ele>
        <time>2011-04-16T15:29:18Z</time>
      </trkpt>
      <trkpt lat="47.20461" lon="5.61541">
        <ele>272.671143</ele>
        <time>2011-04-16T15:29:29Z</time>
      </trkpt>
      <trkpt lat="47.20475" lon="5.61548">
        <ele>271.229126</ele>
        <time>2011-04-16T15:29:44Z</time>
      </trkpt>
      <trkpt lat="47.20484" lon="5.61562">
        <ele>270.748413</ele>
        <time>2011-04-16T15:29:58Z</time>
      </trkpt>
      <trkpt lat="47.20478" lon="5.61579">
        <ele>271.229126</ele>
        <time>2011-04-16T15:30:12Z</time>
      </trkpt>
      <trkpt lat="47.2048" lon="5.6158">
        <ele>270.748413</ele>
        <time>2011-04-16T15:30:14Z</time>
      </trkpt>
      <trkpt lat="47.20482" lon="5.61581">
        <ele>270.748413</ele>
        <time>2011-04-16T15:30:16Z</time>
      </trkpt>
      <trkpt lat="47.20487" lon="5.61585">
        <ele>270.2677</ele>
        <time>2011-04-16T15:30:24Z</time>
      </trkpt>
      <trkpt lat="47.20485" lon="5.61589">
        <ele>271.229126</ele>
        <time>2011-04-16T15:30:35Z</time>
      </trkpt>
      <trkpt lat="47.20486" lon="5.6159">
        <ele>270.2677</ele>
        <time>2011-04-16T15:30:38Z</time>
      </trkpt>
      <trkpt lat="47.20486" lon="5.61593">
        <ele>271.229126</ele>
        <time>2011-04-16T15:31:13Z</time>
      </trkpt>
    </trkseg>
  </trk>
</gpx>